<?xml version="1.0" encoding="UTF-8" standalone="no" ?>
<gpx xmlns="http://www.topografix.com/GPX/1/1" xmlns:xsi="http://www.w3.org/2001/XMLSchema-instance" xsi:schemaLocation="http://www.topografix.com/GPX/1/1 http://www.topografix.com/GPX/1/1/gpx.xsd" version="1.1" creator="VisuGPX - https://www.visugpx.com">
  <metadata>
    <name>HUY balade bois de Tihange 11 km</name>
  </metadata>
  <wpt lat="50.51981" lon="5.27258">
    <ele>142</ele>
    <name><![CDATA[Parking Rue Poyoux-Sarts]]></name>
  </wpt>
  <wpt lat="50.52175" lon="5.28393">
    <ele>160</ele>
    <name><![CDATA[Chemin à droite]]></name>
  </wpt>
  <wpt lat="50.52113" lon="5.29723">
    <ele>163</ele>
    <name><![CDATA[Ruisseau de Maurissart]]></name>
  </wpt>
  <wpt lat="50.51619" lon="5.31282">
    <ele>225</ele>
    <name><![CDATA[Neuf Bonniers, à droite]]></name>
  </wpt>
  <wpt lat="50.50863" lon="5.30979">
    <ele>246</ele>
    <name><![CDATA[À droite en lisière de bois]]></name>
  </wpt>
  <wpt lat="50.51034" lon="5.28397">
    <ele>231</ele>
    <name><![CDATA[Croisement Chemin du Chéra]]></name>
  </wpt>
  <wpt lat="50.51048" lon="5.27779">
    <ele>234</ele>
    <name><![CDATA[Croisement de chemins, à droite]]></name>
  </wpt>
  <wpt lat="50.51899" lon="5.27185">
    <ele>155</ele>
    <name><![CDATA[À gauche en lisière]]></name>
  </wpt>
  <wpt lat="50.5191" lon="5.26986">
    <ele>167</ele>
    <name><![CDATA[Sentier encaissé à gauche]]></name>
  </wpt>
  <wpt lat="50.51297" lon="5.27331">
    <ele>226</ele>
    <name><![CDATA[Croisement en Y, à droite]]></name>
  </wpt>
  <wpt lat="50.51048" lon="5.27395">
    <ele>232</ele>
    <name><![CDATA[À droite en lisière]]></name>
  </wpt>
  <wpt lat="50.51241" lon="5.26804">
    <ele>201</ele>
    <name><![CDATA[Gué, à droite]]></name>
  </wpt>
  <wpt lat="50.51796" lon="5.26635">
    <ele>165</ele>
    <name><![CDATA[Sentier à droite longeant le ruisseau]]></name>
  </wpt>
  <wpt lat="50.51984" lon="5.2725">
    <ele>142</ele>
    <name><![CDATA[Parking Rue Poyoux-Sarts]]></name>
  </wpt>
  <trk>
    <name><![CDATA[Dans les bois autour de Huy]]></name>
    <trkseg>
      <trkpt lat="50.51981" lon="5.27258">
        <ele>142</ele>
        <time>2020-03-15T08:32:40+01:00</time>
      </trkpt>
      <trkpt lat="50.51982" lon="5.27264">
        <ele>143</ele>
        <time>2020-03-15T08:32:55+01:00</time>
      </trkpt>
      <trkpt lat="50.51987" lon="5.27275">
        <ele>142</ele>
        <time>2020-03-15T08:33:01+01:00</time>
      </trkpt>
      <trkpt lat="50.51988" lon="5.27285">
        <ele>143</ele>
        <time>2020-03-15T08:33:06+01:00</time>
      </trkpt>
      <trkpt lat="50.51988" lon="5.27299">
        <ele>143</ele>
        <time>2020-03-15T08:33:11+01:00</time>
      </trkpt>
      <trkpt lat="50.5199" lon="5.2731">
        <ele>144</ele>
        <time>2020-03-15T08:33:16+01:00</time>
      </trkpt>
      <trkpt lat="50.51991" lon="5.27319">
        <ele>144</ele>
        <time>2020-03-15T08:33:21+01:00</time>
      </trkpt>
      <trkpt lat="50.51993" lon="5.27333">
        <ele>144</ele>
        <time>2020-03-15T08:33:26+01:00</time>
      </trkpt>
      <trkpt lat="50.51992" lon="5.27343">
        <ele>145</ele>
        <time>2020-03-15T08:33:31+01:00</time>
      </trkpt>
      <trkpt lat="50.51992" lon="5.27351">
        <ele>145</ele>
        <time>2020-03-15T08:33:36+01:00</time>
      </trkpt>
      <trkpt lat="50.51989" lon="5.27364">
        <ele>146</ele>
        <time>2020-03-15T08:33:45+01:00</time>
      </trkpt>
      <trkpt lat="50.51987" lon="5.27374">
        <ele>147</ele>
        <time>2020-03-15T08:33:51+01:00</time>
      </trkpt>
      <trkpt lat="50.51986" lon="5.27381">
        <ele>148</ele>
        <time>2020-03-15T08:33:56+01:00</time>
      </trkpt>
      <trkpt lat="50.51985" lon="5.27391">
        <ele>149</ele>
        <time>2020-03-15T08:34:01+01:00</time>
      </trkpt>
      <trkpt lat="50.51982" lon="5.27399">
        <ele>150</ele>
        <time>2020-03-15T08:34:06+01:00</time>
      </trkpt>
      <trkpt lat="50.51974" lon="5.27409">
        <ele>153</ele>
        <time>2020-03-15T08:34:15+01:00</time>
      </trkpt>
      <trkpt lat="50.51968" lon="5.27415">
        <ele>155</ele>
        <time>2020-03-15T08:34:20+01:00</time>
      </trkpt>
      <trkpt lat="50.51964" lon="5.27427">
        <ele>157</ele>
        <time>2020-03-15T08:34:35+01:00</time>
      </trkpt>
      <trkpt lat="50.51965" lon="5.27441">
        <ele>158</ele>
        <time>2020-03-15T08:34:46+01:00</time>
      </trkpt>
      <trkpt lat="50.51965" lon="5.27449">
        <ele>159</ele>
        <time>2020-03-15T08:34:51+01:00</time>
      </trkpt>
      <trkpt lat="50.51968" lon="5.27476">
        <ele>160</ele>
        <time>2020-03-15T08:35:06+01:00</time>
      </trkpt>
      <trkpt lat="50.51971" lon="5.27485">
        <ele>160</ele>
        <time>2020-03-15T08:35:11+01:00</time>
      </trkpt>
      <trkpt lat="50.51973" lon="5.27501">
        <ele>160</ele>
        <time>2020-03-15T08:35:20+01:00</time>
      </trkpt>
      <trkpt lat="50.51974" lon="5.27511">
        <ele>161</ele>
        <time>2020-03-15T08:35:25+01:00</time>
      </trkpt>
      <trkpt lat="50.51976" lon="5.27523">
        <ele>161</ele>
        <time>2020-03-15T08:35:30+01:00</time>
      </trkpt>
      <trkpt lat="50.51981" lon="5.27534">
        <ele>160</ele>
        <time>2020-03-15T08:35:35+01:00</time>
      </trkpt>
      <trkpt lat="50.51986" lon="5.27544">
        <ele>159</ele>
        <time>2020-03-15T08:35:40+01:00</time>
      </trkpt>
      <trkpt lat="50.51989" lon="5.27556">
        <ele>159</ele>
        <time>2020-03-15T08:35:46+01:00</time>
      </trkpt>
      <trkpt lat="50.51992" lon="5.27567">
        <ele>159</ele>
        <time>2020-03-15T08:35:51+01:00</time>
      </trkpt>
      <trkpt lat="50.51997" lon="5.27585">
        <ele>158</ele>
        <time>2020-03-15T08:36:01+01:00</time>
      </trkpt>
      <trkpt lat="50.52" lon="5.27602">
        <ele>159</ele>
        <time>2020-03-15T08:36:10+01:00</time>
      </trkpt>
      <trkpt lat="50.52001" lon="5.27616">
        <ele>160</ele>
        <time>2020-03-15T08:36:16+01:00</time>
      </trkpt>
      <trkpt lat="50.52001" lon="5.27623">
        <ele>161</ele>
        <time>2020-03-15T08:36:21+01:00</time>
      </trkpt>
      <trkpt lat="50.52001" lon="5.27631">
        <ele>162</ele>
        <time>2020-03-15T08:36:26+01:00</time>
      </trkpt>
      <trkpt lat="50.52004" lon="5.27643">
        <ele>162</ele>
        <time>2020-03-15T08:36:31+01:00</time>
      </trkpt>
      <trkpt lat="50.52007" lon="5.27655">
        <ele>163</ele>
        <time>2020-03-15T08:36:36+01:00</time>
      </trkpt>
      <trkpt lat="50.52013" lon="5.27675">
        <ele>162</ele>
        <time>2020-03-15T08:36:46+01:00</time>
      </trkpt>
      <trkpt lat="50.52015" lon="5.27691">
        <ele>164</ele>
        <time>2020-03-15T08:36:55+01:00</time>
      </trkpt>
      <trkpt lat="50.52015" lon="5.27702">
        <ele>165</ele>
        <time>2020-03-15T08:37:00+01:00</time>
      </trkpt>
      <trkpt lat="50.52018" lon="5.27715">
        <ele>166</ele>
        <time>2020-03-15T08:37:05+01:00</time>
      </trkpt>
      <trkpt lat="50.52019" lon="5.27722">
        <ele>166</ele>
        <time>2020-03-15T08:37:10+01:00</time>
      </trkpt>
      <trkpt lat="50.52021" lon="5.2773">
        <ele>166</ele>
        <time>2020-03-15T08:37:15+01:00</time>
      </trkpt>
      <trkpt lat="50.52027" lon="5.27758">
        <ele>166</ele>
        <time>2020-03-15T08:37:31+01:00</time>
      </trkpt>
      <trkpt lat="50.52027" lon="5.27768">
        <ele>167</ele>
        <time>2020-03-15T08:37:36+01:00</time>
      </trkpt>
      <trkpt lat="50.52028" lon="5.27777">
        <ele>167</ele>
        <time>2020-03-15T08:37:41+01:00</time>
      </trkpt>
      <trkpt lat="50.5203" lon="5.27791">
        <ele>167</ele>
        <time>2020-03-15T08:37:50+01:00</time>
      </trkpt>
      <trkpt lat="50.5203" lon="5.27801">
        <ele>168</ele>
        <time>2020-03-15T08:37:55+01:00</time>
      </trkpt>
      <trkpt lat="50.52033" lon="5.27822">
        <ele>168</ele>
        <time>2020-03-15T08:38:05+01:00</time>
      </trkpt>
      <trkpt lat="50.52033" lon="5.27832">
        <ele>168</ele>
        <time>2020-03-15T08:38:10+01:00</time>
      </trkpt>
      <trkpt lat="50.52034" lon="5.27841">
        <ele>169</ele>
        <time>2020-03-15T08:38:15+01:00</time>
      </trkpt>
      <trkpt lat="50.52035" lon="5.27852">
        <ele>169</ele>
        <time>2020-03-15T08:38:20+01:00</time>
      </trkpt>
      <trkpt lat="50.52036" lon="5.27859">
        <ele>169</ele>
        <time>2020-03-15T08:38:25+01:00</time>
      </trkpt>
      <trkpt lat="50.52038" lon="5.27881">
        <ele>169</ele>
        <time>2020-03-15T08:38:35+01:00</time>
      </trkpt>
      <trkpt lat="50.52038" lon="5.2789">
        <ele>170</ele>
        <time>2020-03-15T08:38:40+01:00</time>
      </trkpt>
      <trkpt lat="50.52038" lon="5.27901">
        <ele>171</ele>
        <time>2020-03-15T08:38:46+01:00</time>
      </trkpt>
      <trkpt lat="50.52039" lon="5.2791">
        <ele>171</ele>
        <time>2020-03-15T08:38:51+01:00</time>
      </trkpt>
      <trkpt lat="50.5204" lon="5.27928">
        <ele>171</ele>
        <time>2020-03-15T08:39:01+01:00</time>
      </trkpt>
      <trkpt lat="50.5204" lon="5.27938">
        <ele>172</ele>
        <time>2020-03-15T08:39:06+01:00</time>
      </trkpt>
      <trkpt lat="50.52041" lon="5.27948">
        <ele>171</ele>
        <time>2020-03-15T08:39:11+01:00</time>
      </trkpt>
      <trkpt lat="50.52043" lon="5.27972">
        <ele>171</ele>
        <time>2020-03-15T08:39:21+01:00</time>
      </trkpt>
      <trkpt lat="50.52044" lon="5.27982">
        <ele>171</ele>
        <time>2020-03-15T08:39:26+01:00</time>
      </trkpt>
      <trkpt lat="50.52045" lon="5.27994">
        <ele>171</ele>
        <time>2020-03-15T08:39:31+01:00</time>
      </trkpt>
      <trkpt lat="50.52047" lon="5.28004">
        <ele>170</ele>
        <time>2020-03-15T08:39:36+01:00</time>
      </trkpt>
      <trkpt lat="50.52048" lon="5.28011">
        <ele>170</ele>
        <time>2020-03-15T08:39:41+01:00</time>
      </trkpt>
      <trkpt lat="50.52052" lon="5.28024">
        <ele>169</ele>
        <time>2020-03-15T08:39:50+01:00</time>
      </trkpt>
      <trkpt lat="50.52052" lon="5.28034">
        <ele>170</ele>
        <time>2020-03-15T08:39:55+01:00</time>
      </trkpt>
      <trkpt lat="50.52052" lon="5.28041">
        <ele>170</ele>
        <time>2020-03-15T08:40:00+01:00</time>
      </trkpt>
      <trkpt lat="50.52054" lon="5.2805">
        <ele>169</ele>
        <time>2020-03-15T08:40:05+01:00</time>
      </trkpt>
      <trkpt lat="50.52055" lon="5.28062">
        <ele>169</ele>
        <time>2020-03-15T08:40:10+01:00</time>
      </trkpt>
      <trkpt lat="50.52059" lon="5.28079">
        <ele>169</ele>
        <time>2020-03-15T08:40:21+01:00</time>
      </trkpt>
      <trkpt lat="50.52064" lon="5.28091">
        <ele>167</ele>
        <time>2020-03-15T08:40:30+01:00</time>
      </trkpt>
      <trkpt lat="50.52066" lon="5.28098">
        <ele>167</ele>
        <time>2020-03-15T08:40:35+01:00</time>
      </trkpt>
      <trkpt lat="50.52072" lon="5.28112">
        <ele>166</ele>
        <time>2020-03-15T08:40:41+01:00</time>
      </trkpt>
      <trkpt lat="50.52076" lon="5.28125">
        <ele>166</ele>
        <time>2020-03-15T08:40:46+01:00</time>
      </trkpt>
      <trkpt lat="50.5208" lon="5.28135">
        <ele>165</ele>
        <time>2020-03-15T08:40:51+01:00</time>
      </trkpt>
      <trkpt lat="50.52082" lon="5.28147">
        <ele>166</ele>
        <time>2020-03-15T08:40:56+01:00</time>
      </trkpt>
      <trkpt lat="50.52084" lon="5.28156">
        <ele>166</ele>
        <time>2020-03-15T08:41:01+01:00</time>
      </trkpt>
      <trkpt lat="50.52088" lon="5.28169">
        <ele>166</ele>
        <time>2020-03-15T08:41:06+01:00</time>
      </trkpt>
      <trkpt lat="50.52094" lon="5.28186">
        <ele>167</ele>
        <time>2020-03-15T08:41:15+01:00</time>
      </trkpt>
      <trkpt lat="50.52097" lon="5.28194">
        <ele>167</ele>
        <time>2020-03-15T08:41:20+01:00</time>
      </trkpt>
      <trkpt lat="50.521" lon="5.28199">
        <ele>167</ele>
        <time>2020-03-15T08:41:25+01:00</time>
      </trkpt>
      <trkpt lat="50.52104" lon="5.28208">
        <ele>167</ele>
        <time>2020-03-15T08:41:30+01:00</time>
      </trkpt>
      <trkpt lat="50.52107" lon="5.28216">
        <ele>167</ele>
        <time>2020-03-15T08:41:35+01:00</time>
      </trkpt>
      <trkpt lat="50.52112" lon="5.28224">
        <ele>166</ele>
        <time>2020-03-15T08:41:40+01:00</time>
      </trkpt>
      <trkpt lat="50.52117" lon="5.28231">
        <ele>165</ele>
        <time>2020-03-15T08:41:45+01:00</time>
      </trkpt>
      <trkpt lat="50.52123" lon="5.28239">
        <ele>164</ele>
        <time>2020-03-15T08:41:51+01:00</time>
      </trkpt>
      <trkpt lat="50.52131" lon="5.28256">
        <ele>162</ele>
        <time>2020-03-15T08:42:16+01:00</time>
      </trkpt>
      <trkpt lat="50.52135" lon="5.28263">
        <ele>162</ele>
        <time>2020-03-15T08:42:21+01:00</time>
      </trkpt>
      <trkpt lat="50.52139" lon="5.2827">
        <ele>161</ele>
        <time>2020-03-15T08:42:26+01:00</time>
      </trkpt>
      <trkpt lat="50.52143" lon="5.28278">
        <ele>160</ele>
        <time>2020-03-15T08:42:31+01:00</time>
      </trkpt>
      <trkpt lat="50.52146" lon="5.28285">
        <ele>160</ele>
        <time>2020-03-15T08:42:36+01:00</time>
      </trkpt>
      <trkpt lat="50.5215" lon="5.28296">
        <ele>159</ele>
        <time>2020-03-15T08:42:41+01:00</time>
      </trkpt>
      <trkpt lat="50.52158" lon="5.28318">
        <ele>159</ele>
        <time>2020-03-15T08:42:50+01:00</time>
      </trkpt>
      <trkpt lat="50.5216" lon="5.28329">
        <ele>159</ele>
        <time>2020-03-15T08:42:55+01:00</time>
      </trkpt>
      <trkpt lat="50.52161" lon="5.28343">
        <ele>159</ele>
        <time>2020-03-15T08:43:01+01:00</time>
      </trkpt>
      <trkpt lat="50.52162" lon="5.28352">
        <ele>160</ele>
        <time>2020-03-15T08:43:06+01:00</time>
      </trkpt>
      <trkpt lat="50.52163" lon="5.28362">
        <ele>160</ele>
        <time>2020-03-15T08:43:11+01:00</time>
      </trkpt>
      <trkpt lat="50.52168" lon="5.28373">
        <ele>160</ele>
        <time>2020-03-15T08:43:20+01:00</time>
      </trkpt>
      <trkpt lat="50.52172" lon="5.28385">
        <ele>160</ele>
        <time>2020-03-15T08:43:25+01:00</time>
      </trkpt>
      <trkpt lat="50.52175" lon="5.28393">
        <ele>160</ele>
        <time>2020-03-15T08:43:30+01:00</time>
      </trkpt>
      <trkpt lat="50.52174" lon="5.28409">
        <ele>161</ele>
        <time>2020-03-15T08:43:41+01:00</time>
      </trkpt>
      <trkpt lat="50.52174" lon="5.28419">
        <ele>162</ele>
        <time>2020-03-15T08:43:46+01:00</time>
      </trkpt>
      <trkpt lat="50.52173" lon="5.28426">
        <ele>162</ele>
        <time>2020-03-15T08:43:51+01:00</time>
      </trkpt>
      <trkpt lat="50.52169" lon="5.28443">
        <ele>164</ele>
        <time>2020-03-15T08:44:00+01:00</time>
      </trkpt>
      <trkpt lat="50.52168" lon="5.28452">
        <ele>164</ele>
        <time>2020-03-15T08:44:05+01:00</time>
      </trkpt>
      <trkpt lat="50.52168" lon="5.2846">
        <ele>164</ele>
        <time>2020-03-15T08:44:10+01:00</time>
      </trkpt>
      <trkpt lat="50.52165" lon="5.28471">
        <ele>165</ele>
        <time>2020-03-15T08:44:15+01:00</time>
      </trkpt>
      <trkpt lat="50.52161" lon="5.28485">
        <ele>166</ele>
        <time>2020-03-15T08:44:21+01:00</time>
      </trkpt>
      <trkpt lat="50.52158" lon="5.28494">
        <ele>167</ele>
        <time>2020-03-15T08:44:26+01:00</time>
      </trkpt>
      <trkpt lat="50.52152" lon="5.28513">
        <ele>168</ele>
        <time>2020-03-15T08:44:35+01:00</time>
      </trkpt>
      <trkpt lat="50.52146" lon="5.28524">
        <ele>170</ele>
        <time>2020-03-15T08:44:40+01:00</time>
      </trkpt>
      <trkpt lat="50.5214" lon="5.28534">
        <ele>171</ele>
        <time>2020-03-15T08:44:46+01:00</time>
      </trkpt>
      <trkpt lat="50.52133" lon="5.28548">
        <ele>173</ele>
        <time>2020-03-15T08:44:56+01:00</time>
      </trkpt>
      <trkpt lat="50.52134" lon="5.28566">
        <ele>172</ele>
        <time>2020-03-15T08:45:01+01:00</time>
      </trkpt>
      <trkpt lat="50.52135" lon="5.2858">
        <ele>171</ele>
        <time>2020-03-15T08:45:06+01:00</time>
      </trkpt>
      <trkpt lat="50.52136" lon="5.2859">
        <ele>171</ele>
        <time>2020-03-15T08:45:11+01:00</time>
      </trkpt>
      <trkpt lat="50.52136" lon="5.28603">
        <ele>171</ele>
        <time>2020-03-15T08:45:16+01:00</time>
      </trkpt>
      <trkpt lat="50.52139" lon="5.28615">
        <ele>170</ele>
        <time>2020-03-15T08:45:21+01:00</time>
      </trkpt>
      <trkpt lat="50.5214" lon="5.28627">
        <ele>169</ele>
        <time>2020-03-15T08:45:26+01:00</time>
      </trkpt>
      <trkpt lat="50.5214" lon="5.28636">
        <ele>169</ele>
        <time>2020-03-15T08:45:31+01:00</time>
      </trkpt>
      <trkpt lat="50.52144" lon="5.2865">
        <ele>168</ele>
        <time>2020-03-15T08:45:41+01:00</time>
      </trkpt>
      <trkpt lat="50.52147" lon="5.28664">
        <ele>167</ele>
        <time>2020-03-15T08:45:46+01:00</time>
      </trkpt>
      <trkpt lat="50.52152" lon="5.28684">
        <ele>165</ele>
        <time>2020-03-15T08:45:56+01:00</time>
      </trkpt>
      <trkpt lat="50.52152" lon="5.28701">
        <ele>164</ele>
        <time>2020-03-15T08:46:01+01:00</time>
      </trkpt>
      <trkpt lat="50.5215" lon="5.28713">
        <ele>164</ele>
        <time>2020-03-15T08:46:06+01:00</time>
      </trkpt>
      <trkpt lat="50.52145" lon="5.28727">
        <ele>166</ele>
        <time>2020-03-15T08:46:11+01:00</time>
      </trkpt>
      <trkpt lat="50.52139" lon="5.28751">
        <ele>167</ele>
        <time>2020-03-15T08:46:21+01:00</time>
      </trkpt>
      <trkpt lat="50.52134" lon="5.28763">
        <ele>168</ele>
        <time>2020-03-15T08:46:26+01:00</time>
      </trkpt>
      <trkpt lat="50.52132" lon="5.28771">
        <ele>169</ele>
        <time>2020-03-15T08:46:31+01:00</time>
      </trkpt>
      <trkpt lat="50.52129" lon="5.28779">
        <ele>169</ele>
        <time>2020-03-15T08:46:36+01:00</time>
      </trkpt>
      <trkpt lat="50.5213" lon="5.2879">
        <ele>168</ele>
        <time>2020-03-15T08:46:41+01:00</time>
      </trkpt>
      <trkpt lat="50.52128" lon="5.28817">
        <ele>167</ele>
        <time>2020-03-15T08:46:50+01:00</time>
      </trkpt>
      <trkpt lat="50.52127" lon="5.28831">
        <ele>166</ele>
        <time>2020-03-15T08:46:55+01:00</time>
      </trkpt>
      <trkpt lat="50.52125" lon="5.28839">
        <ele>166</ele>
        <time>2020-03-15T08:47:00+01:00</time>
      </trkpt>
      <trkpt lat="50.52124" lon="5.28848">
        <ele>166</ele>
        <time>2020-03-15T08:47:05+01:00</time>
      </trkpt>
      <trkpt lat="50.52124" lon="5.28856">
        <ele>166</ele>
        <time>2020-03-15T08:47:10+01:00</time>
      </trkpt>
      <trkpt lat="50.52123" lon="5.28868">
        <ele>166</ele>
        <time>2020-03-15T08:47:15+01:00</time>
      </trkpt>
      <trkpt lat="50.52124" lon="5.28881">
        <ele>166</ele>
        <time>2020-03-15T08:47:21+01:00</time>
      </trkpt>
      <trkpt lat="50.52123" lon="5.28891">
        <ele>166</ele>
        <time>2020-03-15T08:47:26+01:00</time>
      </trkpt>
      <trkpt lat="50.52122" lon="5.28901">
        <ele>166</ele>
        <time>2020-03-15T08:47:31+01:00</time>
      </trkpt>
      <trkpt lat="50.52122" lon="5.28916">
        <ele>165</ele>
        <time>2020-03-15T08:47:36+01:00</time>
      </trkpt>
      <trkpt lat="50.52123" lon="5.2893">
        <ele>165</ele>
        <time>2020-03-15T08:47:41+01:00</time>
      </trkpt>
      <trkpt lat="50.52122" lon="5.28941">
        <ele>165</ele>
        <time>2020-03-15T08:47:46+01:00</time>
      </trkpt>
      <trkpt lat="50.52123" lon="5.28966">
        <ele>164</ele>
        <time>2020-03-15T08:47:55+01:00</time>
      </trkpt>
      <trkpt lat="50.52127" lon="5.28977">
        <ele>163</ele>
        <time>2020-03-15T08:48:00+01:00</time>
      </trkpt>
      <trkpt lat="50.52128" lon="5.28989">
        <ele>162</ele>
        <time>2020-03-15T08:48:05+01:00</time>
      </trkpt>
      <trkpt lat="50.52126" lon="5.29001">
        <ele>162</ele>
        <time>2020-03-15T08:48:10+01:00</time>
      </trkpt>
      <trkpt lat="50.52126" lon="5.29009">
        <ele>162</ele>
        <time>2020-03-15T08:48:15+01:00</time>
      </trkpt>
      <trkpt lat="50.52124" lon="5.29021">
        <ele>162</ele>
        <time>2020-03-15T08:48:20+01:00</time>
      </trkpt>
      <trkpt lat="50.52124" lon="5.29032">
        <ele>161</ele>
        <time>2020-03-15T08:48:25+01:00</time>
      </trkpt>
      <trkpt lat="50.52119" lon="5.29045">
        <ele>162</ele>
        <time>2020-03-15T08:48:30+01:00</time>
      </trkpt>
      <trkpt lat="50.52113" lon="5.29059">
        <ele>163</ele>
        <time>2020-03-15T08:48:35+01:00</time>
      </trkpt>
      <trkpt lat="50.5211" lon="5.29067">
        <ele>164</ele>
        <time>2020-03-15T08:48:40+01:00</time>
      </trkpt>
      <trkpt lat="50.52107" lon="5.29076">
        <ele>164</ele>
        <time>2020-03-15T08:48:45+01:00</time>
      </trkpt>
      <trkpt lat="50.52103" lon="5.29088">
        <ele>165</ele>
        <time>2020-03-15T08:48:51+01:00</time>
      </trkpt>
      <trkpt lat="50.52103" lon="5.29097">
        <ele>165</ele>
        <time>2020-03-15T08:48:56+01:00</time>
      </trkpt>
      <trkpt lat="50.52103" lon="5.29106">
        <ele>164</ele>
        <time>2020-03-15T08:49:01+01:00</time>
      </trkpt>
      <trkpt lat="50.52101" lon="5.2913">
        <ele>164</ele>
        <time>2020-03-15T08:49:11+01:00</time>
      </trkpt>
      <trkpt lat="50.52097" lon="5.29153">
        <ele>164</ele>
        <time>2020-03-15T08:49:21+01:00</time>
      </trkpt>
      <trkpt lat="50.52096" lon="5.29164">
        <ele>164</ele>
        <time>2020-03-15T08:49:26+01:00</time>
      </trkpt>
      <trkpt lat="50.52095" lon="5.29177">
        <ele>163</ele>
        <time>2020-03-15T08:49:31+01:00</time>
      </trkpt>
      <trkpt lat="50.52095" lon="5.29187">
        <ele>162</ele>
        <time>2020-03-15T08:49:36+01:00</time>
      </trkpt>
      <trkpt lat="50.52096" lon="5.292">
        <ele>161</ele>
        <time>2020-03-15T08:49:41+01:00</time>
      </trkpt>
      <trkpt lat="50.52094" lon="5.29208">
        <ele>161</ele>
        <time>2020-03-15T08:49:46+01:00</time>
      </trkpt>
      <trkpt lat="50.5209" lon="5.29229">
        <ele>160</ele>
        <time>2020-03-15T08:49:55+01:00</time>
      </trkpt>
      <trkpt lat="50.52088" lon="5.2924">
        <ele>159</ele>
        <time>2020-03-15T08:50:00+01:00</time>
      </trkpt>
      <trkpt lat="50.52087" lon="5.29253">
        <ele>158</ele>
        <time>2020-03-15T08:50:06+01:00</time>
      </trkpt>
      <trkpt lat="50.52087" lon="5.29264">
        <ele>157</ele>
        <time>2020-03-15T08:50:11+01:00</time>
      </trkpt>
      <trkpt lat="50.52087" lon="5.29274">
        <ele>157</ele>
        <time>2020-03-15T08:50:16+01:00</time>
      </trkpt>
      <trkpt lat="50.52087" lon="5.29289">
        <ele>156</ele>
        <time>2020-03-15T08:50:21+01:00</time>
      </trkpt>
      <trkpt lat="50.52089" lon="5.29302">
        <ele>155</ele>
        <time>2020-03-15T08:50:26+01:00</time>
      </trkpt>
      <trkpt lat="50.52087" lon="5.29312">
        <ele>154</ele>
        <time>2020-03-15T08:50:31+01:00</time>
      </trkpt>
      <trkpt lat="50.52087" lon="5.29322">
        <ele>154</ele>
        <time>2020-03-15T08:50:36+01:00</time>
      </trkpt>
      <trkpt lat="50.52086" lon="5.29344">
        <ele>152</ele>
        <time>2020-03-15T08:50:45+01:00</time>
      </trkpt>
      <trkpt lat="50.52086" lon="5.29352">
        <ele>152</ele>
        <time>2020-03-15T08:50:50+01:00</time>
      </trkpt>
      <trkpt lat="50.52084" lon="5.29363">
        <ele>152</ele>
        <time>2020-03-15T08:50:55+01:00</time>
      </trkpt>
      <trkpt lat="50.52082" lon="5.29376">
        <ele>152</ele>
        <time>2020-03-15T08:51:01+01:00</time>
      </trkpt>
      <trkpt lat="50.52077" lon="5.29395">
        <ele>154</ele>
        <time>2020-03-15T08:51:10+01:00</time>
      </trkpt>
      <trkpt lat="50.52073" lon="5.29409">
        <ele>155</ele>
        <time>2020-03-15T08:51:15+01:00</time>
      </trkpt>
      <trkpt lat="50.52068" lon="5.29419">
        <ele>156</ele>
        <time>2020-03-15T08:51:20+01:00</time>
      </trkpt>
      <trkpt lat="50.52064" lon="5.29428">
        <ele>158</ele>
        <time>2020-03-15T08:51:25+01:00</time>
      </trkpt>
      <trkpt lat="50.52061" lon="5.29435">
        <ele>159</ele>
        <time>2020-03-15T08:51:30+01:00</time>
      </trkpt>
      <trkpt lat="50.52057" lon="5.29448">
        <ele>160</ele>
        <time>2020-03-15T08:51:36+01:00</time>
      </trkpt>
      <trkpt lat="50.52057" lon="5.29455">
        <ele>161</ele>
        <time>2020-03-15T08:51:41+01:00</time>
      </trkpt>
      <trkpt lat="50.52055" lon="5.29469">
        <ele>161</ele>
        <time>2020-03-15T08:51:46+01:00</time>
      </trkpt>
      <trkpt lat="50.52054" lon="5.29476">
        <ele>161</ele>
        <time>2020-03-15T08:51:51+01:00</time>
      </trkpt>
      <trkpt lat="50.52053" lon="5.29486">
        <ele>161</ele>
        <time>2020-03-15T08:51:56+01:00</time>
      </trkpt>
      <trkpt lat="50.52055" lon="5.29497">
        <ele>160</ele>
        <time>2020-03-15T08:52:01+01:00</time>
      </trkpt>
      <trkpt lat="50.52055" lon="5.2952">
        <ele>160</ele>
        <time>2020-03-15T08:52:10+01:00</time>
      </trkpt>
      <trkpt lat="50.52056" lon="5.29532">
        <ele>159</ele>
        <time>2020-03-15T08:52:15+01:00</time>
      </trkpt>
      <trkpt lat="50.52058" lon="5.29543">
        <ele>159</ele>
        <time>2020-03-15T08:52:20+01:00</time>
      </trkpt>
      <trkpt lat="50.52058" lon="5.29551">
        <ele>159</ele>
        <time>2020-03-15T08:52:25+01:00</time>
      </trkpt>
      <trkpt lat="50.52058" lon="5.29561">
        <ele>159</ele>
        <time>2020-03-15T08:52:30+01:00</time>
      </trkpt>
      <trkpt lat="50.5206" lon="5.29574">
        <ele>158</ele>
        <time>2020-03-15T08:52:35+01:00</time>
      </trkpt>
      <trkpt lat="50.52062" lon="5.29586">
        <ele>157</ele>
        <time>2020-03-15T08:52:40+01:00</time>
      </trkpt>
      <trkpt lat="50.52065" lon="5.29597">
        <ele>157</ele>
        <time>2020-03-15T08:52:45+01:00</time>
      </trkpt>
      <trkpt lat="50.52066" lon="5.2961">
        <ele>157</ele>
        <time>2020-03-15T08:52:50+01:00</time>
      </trkpt>
      <trkpt lat="50.52068" lon="5.29624">
        <ele>157</ele>
        <time>2020-03-15T08:52:56+01:00</time>
      </trkpt>
      <trkpt lat="50.52073" lon="5.29641">
        <ele>156</ele>
        <time>2020-03-15T08:53:05+01:00</time>
      </trkpt>
      <trkpt lat="50.52077" lon="5.29654">
        <ele>156</ele>
        <time>2020-03-15T08:53:10+01:00</time>
      </trkpt>
      <trkpt lat="50.52078" lon="5.29664">
        <ele>156</ele>
        <time>2020-03-15T08:53:15+01:00</time>
      </trkpt>
      <trkpt lat="50.52082" lon="5.29675">
        <ele>155</ele>
        <time>2020-03-15T08:53:20+01:00</time>
      </trkpt>
      <trkpt lat="50.52086" lon="5.29686">
        <ele>156</ele>
        <time>2020-03-15T08:53:25+01:00</time>
      </trkpt>
      <trkpt lat="50.52089" lon="5.29695">
        <ele>157</ele>
        <time>2020-03-15T08:53:30+01:00</time>
      </trkpt>
      <trkpt lat="50.52094" lon="5.29703">
        <ele>158</ele>
        <time>2020-03-15T08:53:35+01:00</time>
      </trkpt>
      <trkpt lat="50.52099" lon="5.29706">
        <ele>159</ele>
        <time>2020-03-15T08:53:40+01:00</time>
      </trkpt>
      <trkpt lat="50.52103" lon="5.29713">
        <ele>160</ele>
        <time>2020-03-15T08:53:45+01:00</time>
      </trkpt>
      <trkpt lat="50.52109" lon="5.29716">
        <ele>161</ele>
        <time>2020-03-15T08:53:55+01:00</time>
      </trkpt>
      <trkpt lat="50.52113" lon="5.29723">
        <ele>163</ele>
        <time>2020-03-15T08:54:01+01:00</time>
      </trkpt>
      <trkpt lat="50.52115" lon="5.29736">
        <ele>163</ele>
        <time>2020-03-15T08:54:06+01:00</time>
      </trkpt>
      <trkpt lat="50.52114" lon="5.29746">
        <ele>163</ele>
        <time>2020-03-15T08:54:16+01:00</time>
      </trkpt>
      <trkpt lat="50.52112" lon="5.29751">
        <ele>163</ele>
        <time>2020-03-15T08:54:40+01:00</time>
      </trkpt>
      <trkpt lat="50.52116" lon="5.29747">
        <ele>164</ele>
        <time>2020-03-15T08:54:45+01:00</time>
      </trkpt>
      <trkpt lat="50.52117" lon="5.29759">
        <ele>165</ele>
        <time>2020-03-15T08:54:56+01:00</time>
      </trkpt>
      <trkpt lat="50.52106" lon="5.29776">
        <ele>163</ele>
        <time>2020-03-15T08:55:06+01:00</time>
      </trkpt>
      <trkpt lat="50.52098" lon="5.29792">
        <ele>162</ele>
        <time>2020-03-15T08:55:15+01:00</time>
      </trkpt>
      <trkpt lat="50.52095" lon="5.29802">
        <ele>162</ele>
        <time>2020-03-15T08:55:20+01:00</time>
      </trkpt>
      <trkpt lat="50.52091" lon="5.29815">
        <ele>162</ele>
        <time>2020-03-15T08:55:25+01:00</time>
      </trkpt>
      <trkpt lat="50.52086" lon="5.29828">
        <ele>161</ele>
        <time>2020-03-15T08:55:31+01:00</time>
      </trkpt>
      <trkpt lat="50.52075" lon="5.29841">
        <ele>162</ele>
        <time>2020-03-15T08:55:40+01:00</time>
      </trkpt>
      <trkpt lat="50.52068" lon="5.29851">
        <ele>163</ele>
        <time>2020-03-15T08:55:45+01:00</time>
      </trkpt>
      <trkpt lat="50.52064" lon="5.29861">
        <ele>164</ele>
        <time>2020-03-15T08:55:50+01:00</time>
      </trkpt>
      <trkpt lat="50.5206" lon="5.29869">
        <ele>165</ele>
        <time>2020-03-15T08:55:55+01:00</time>
      </trkpt>
      <trkpt lat="50.52056" lon="5.29879">
        <ele>166</ele>
        <time>2020-03-15T08:56:01+01:00</time>
      </trkpt>
      <trkpt lat="50.52053" lon="5.29893">
        <ele>166</ele>
        <time>2020-03-15T08:56:06+01:00</time>
      </trkpt>
      <trkpt lat="50.52048" lon="5.29908">
        <ele>167</ele>
        <time>2020-03-15T08:56:15+01:00</time>
      </trkpt>
      <trkpt lat="50.52043" lon="5.29916">
        <ele>167</ele>
        <time>2020-03-15T08:56:20+01:00</time>
      </trkpt>
      <trkpt lat="50.52038" lon="5.29924">
        <ele>168</ele>
        <time>2020-03-15T08:56:25+01:00</time>
      </trkpt>
      <trkpt lat="50.52035" lon="5.29931">
        <ele>168</ele>
        <time>2020-03-15T08:56:30+01:00</time>
      </trkpt>
      <trkpt lat="50.52032" lon="5.29941">
        <ele>168</ele>
        <time>2020-03-15T08:56:35+01:00</time>
      </trkpt>
      <trkpt lat="50.52029" lon="5.29951">
        <ele>169</ele>
        <time>2020-03-15T08:56:41+01:00</time>
      </trkpt>
      <trkpt lat="50.52027" lon="5.2996">
        <ele>169</ele>
        <time>2020-03-15T08:56:46+01:00</time>
      </trkpt>
      <trkpt lat="50.52023" lon="5.29969">
        <ele>169</ele>
        <time>2020-03-15T08:56:51+01:00</time>
      </trkpt>
      <trkpt lat="50.52025" lon="5.29974">
        <ele>169</ele>
        <time>2020-03-15T08:57:01+01:00</time>
      </trkpt>
      <trkpt lat="50.52025" lon="5.2999">
        <ele>169</ele>
        <time>2020-03-15T08:57:16+01:00</time>
      </trkpt>
      <trkpt lat="50.52019" lon="5.29999">
        <ele>169</ele>
        <time>2020-03-15T08:57:21+01:00</time>
      </trkpt>
      <trkpt lat="50.52017" lon="5.30009">
        <ele>169</ele>
        <time>2020-03-15T08:57:26+01:00</time>
      </trkpt>
      <trkpt lat="50.52015" lon="5.30019">
        <ele>170</ele>
        <time>2020-03-15T08:57:31+01:00</time>
      </trkpt>
      <trkpt lat="50.52013" lon="5.3003">
        <ele>170</ele>
        <time>2020-03-15T08:57:36+01:00</time>
      </trkpt>
      <trkpt lat="50.52011" lon="5.30046">
        <ele>171</ele>
        <time>2020-03-15T08:57:45+01:00</time>
      </trkpt>
      <trkpt lat="50.52009" lon="5.30054">
        <ele>171</ele>
        <time>2020-03-15T08:57:50+01:00</time>
      </trkpt>
      <trkpt lat="50.52007" lon="5.30063">
        <ele>172</ele>
        <time>2020-03-15T08:57:55+01:00</time>
      </trkpt>
      <trkpt lat="50.52004" lon="5.30076">
        <ele>172</ele>
        <time>2020-03-15T08:58:00+01:00</time>
      </trkpt>
      <trkpt lat="50.52002" lon="5.30091">
        <ele>172</ele>
        <time>2020-03-15T08:58:05+01:00</time>
      </trkpt>
      <trkpt lat="50.52004" lon="5.30104">
        <ele>173</ele>
        <time>2020-03-15T08:58:11+01:00</time>
      </trkpt>
      <trkpt lat="50.52" lon="5.30113">
        <ele>172</ele>
        <time>2020-03-15T08:58:16+01:00</time>
      </trkpt>
      <trkpt lat="50.51997" lon="5.30118">
        <ele>173</ele>
        <time>2020-03-15T08:58:21+01:00</time>
      </trkpt>
      <trkpt lat="50.51994" lon="5.30128">
        <ele>174</ele>
        <time>2020-03-15T08:58:26+01:00</time>
      </trkpt>
      <trkpt lat="50.51986" lon="5.30147">
        <ele>176</ele>
        <time>2020-03-15T08:58:36+01:00</time>
      </trkpt>
      <trkpt lat="50.51981" lon="5.30153">
        <ele>177</ele>
        <time>2020-03-15T08:58:41+01:00</time>
      </trkpt>
      <trkpt lat="50.51976" lon="5.30156">
        <ele>178</ele>
        <time>2020-03-15T08:58:46+01:00</time>
      </trkpt>
      <trkpt lat="50.51969" lon="5.3016">
        <ele>180</ele>
        <time>2020-03-15T08:58:51+01:00</time>
      </trkpt>
      <trkpt lat="50.51961" lon="5.30167">
        <ele>181</ele>
        <time>2020-03-15T08:58:56+01:00</time>
      </trkpt>
      <trkpt lat="50.51955" lon="5.30173">
        <ele>182</ele>
        <time>2020-03-15T08:59:01+01:00</time>
      </trkpt>
      <trkpt lat="50.51951" lon="5.3018">
        <ele>182</ele>
        <time>2020-03-15T08:59:06+01:00</time>
      </trkpt>
      <trkpt lat="50.51942" lon="5.30194">
        <ele>183</ele>
        <time>2020-03-15T08:59:15+01:00</time>
      </trkpt>
      <trkpt lat="50.51933" lon="5.30205">
        <ele>183</ele>
        <time>2020-03-15T08:59:25+01:00</time>
      </trkpt>
      <trkpt lat="50.51927" lon="5.30215">
        <ele>183</ele>
        <time>2020-03-15T08:59:30+01:00</time>
      </trkpt>
      <trkpt lat="50.51921" lon="5.30223">
        <ele>183</ele>
        <time>2020-03-15T08:59:35+01:00</time>
      </trkpt>
      <trkpt lat="50.51916" lon="5.30233">
        <ele>182</ele>
        <time>2020-03-15T08:59:41+01:00</time>
      </trkpt>
      <trkpt lat="50.51904" lon="5.30247">
        <ele>183</ele>
        <time>2020-03-15T08:59:51+01:00</time>
      </trkpt>
      <trkpt lat="50.51895" lon="5.30259">
        <ele>185</ele>
        <time>2020-03-15T09:00:01+01:00</time>
      </trkpt>
      <trkpt lat="50.51882" lon="5.30275">
        <ele>187</ele>
        <time>2020-03-15T09:00:11+01:00</time>
      </trkpt>
      <trkpt lat="50.51878" lon="5.30281">
        <ele>187</ele>
        <time>2020-03-15T09:00:16+01:00</time>
      </trkpt>
      <trkpt lat="50.51872" lon="5.30289">
        <ele>187</ele>
        <time>2020-03-15T09:00:21+01:00</time>
      </trkpt>
      <trkpt lat="50.51864" lon="5.30295">
        <ele>188</ele>
        <time>2020-03-15T09:00:26+01:00</time>
      </trkpt>
      <trkpt lat="50.51856" lon="5.30297">
        <ele>189</ele>
        <time>2020-03-15T09:00:31+01:00</time>
      </trkpt>
      <trkpt lat="50.51845" lon="5.30304">
        <ele>189</ele>
        <time>2020-03-15T09:00:36+01:00</time>
      </trkpt>
      <trkpt lat="50.51833" lon="5.30311">
        <ele>189</ele>
        <time>2020-03-15T09:00:45+01:00</time>
      </trkpt>
      <trkpt lat="50.51828" lon="5.30315">
        <ele>189</ele>
        <time>2020-03-15T09:00:50+01:00</time>
      </trkpt>
      <trkpt lat="50.51819" lon="5.30316">
        <ele>190</ele>
        <time>2020-03-15T09:00:55+01:00</time>
      </trkpt>
      <trkpt lat="50.51812" lon="5.3032">
        <ele>191</ele>
        <time>2020-03-15T09:01:00+01:00</time>
      </trkpt>
      <trkpt lat="50.51806" lon="5.30325">
        <ele>191</ele>
        <time>2020-03-15T09:01:05+01:00</time>
      </trkpt>
      <trkpt lat="50.51793" lon="5.30331">
        <ele>191</ele>
        <time>2020-03-15T09:01:16+01:00</time>
      </trkpt>
      <trkpt lat="50.5178" lon="5.30338">
        <ele>192</ele>
        <time>2020-03-15T09:01:25+01:00</time>
      </trkpt>
      <trkpt lat="50.51775" lon="5.30341">
        <ele>193</ele>
        <time>2020-03-15T09:01:30+01:00</time>
      </trkpt>
      <trkpt lat="50.51767" lon="5.3034">
        <ele>194</ele>
        <time>2020-03-15T09:01:35+01:00</time>
      </trkpt>
      <trkpt lat="50.5176" lon="5.30341">
        <ele>195</ele>
        <time>2020-03-15T09:01:41+01:00</time>
      </trkpt>
      <trkpt lat="50.51755" lon="5.30342">
        <ele>195</ele>
        <time>2020-03-15T09:01:46+01:00</time>
      </trkpt>
      <trkpt lat="50.51747" lon="5.30345">
        <ele>196</ele>
        <time>2020-03-15T09:01:51+01:00</time>
      </trkpt>
      <trkpt lat="50.5174" lon="5.30347">
        <ele>197</ele>
        <time>2020-03-15T09:01:56+01:00</time>
      </trkpt>
      <trkpt lat="50.51733" lon="5.30349">
        <ele>199</ele>
        <time>2020-03-15T09:02:01+01:00</time>
      </trkpt>
      <trkpt lat="50.51719" lon="5.30361">
        <ele>201</ele>
        <time>2020-03-15T09:02:15+01:00</time>
      </trkpt>
      <trkpt lat="50.51713" lon="5.30366">
        <ele>201</ele>
        <time>2020-03-15T09:02:20+01:00</time>
      </trkpt>
      <trkpt lat="50.51708" lon="5.30372">
        <ele>202</ele>
        <time>2020-03-15T09:02:25+01:00</time>
      </trkpt>
      <trkpt lat="50.51704" lon="5.30379">
        <ele>202</ele>
        <time>2020-03-15T09:02:30+01:00</time>
      </trkpt>
      <trkpt lat="50.51697" lon="5.30387">
        <ele>202</ele>
        <time>2020-03-15T09:02:35+01:00</time>
      </trkpt>
      <trkpt lat="50.51685" lon="5.30405">
        <ele>202</ele>
        <time>2020-03-15T09:02:45+01:00</time>
      </trkpt>
      <trkpt lat="50.51682" lon="5.30413">
        <ele>201</ele>
        <time>2020-03-15T09:02:50+01:00</time>
      </trkpt>
      <trkpt lat="50.51677" lon="5.30421">
        <ele>202</ele>
        <time>2020-03-15T09:02:55+01:00</time>
      </trkpt>
      <trkpt lat="50.51672" lon="5.30429">
        <ele>202</ele>
        <time>2020-03-15T09:03:00+01:00</time>
      </trkpt>
      <trkpt lat="50.51667" lon="5.30436">
        <ele>202</ele>
        <time>2020-03-15T09:03:05+01:00</time>
      </trkpt>
      <trkpt lat="50.51661" lon="5.30447">
        <ele>203</ele>
        <time>2020-03-15T09:03:10+01:00</time>
      </trkpt>
      <trkpt lat="50.51655" lon="5.3046">
        <ele>203</ele>
        <time>2020-03-15T09:03:16+01:00</time>
      </trkpt>
      <trkpt lat="50.51652" lon="5.30467">
        <ele>204</ele>
        <time>2020-03-15T09:03:21+01:00</time>
      </trkpt>
      <trkpt lat="50.51646" lon="5.30473">
        <ele>204</ele>
        <time>2020-03-15T09:03:26+01:00</time>
      </trkpt>
      <trkpt lat="50.51641" lon="5.30481">
        <ele>205</ele>
        <time>2020-03-15T09:03:31+01:00</time>
      </trkpt>
      <trkpt lat="50.51636" lon="5.30488">
        <ele>205</ele>
        <time>2020-03-15T09:03:36+01:00</time>
      </trkpt>
      <trkpt lat="50.51632" lon="5.30495">
        <ele>206</ele>
        <time>2020-03-15T09:03:41+01:00</time>
      </trkpt>
      <trkpt lat="50.51625" lon="5.30512">
        <ele>206</ele>
        <time>2020-03-15T09:03:50+01:00</time>
      </trkpt>
      <trkpt lat="50.51621" lon="5.3052">
        <ele>206</ele>
        <time>2020-03-15T09:03:55+01:00</time>
      </trkpt>
      <trkpt lat="50.51616" lon="5.30528">
        <ele>207</ele>
        <time>2020-03-15T09:04:00+01:00</time>
      </trkpt>
      <trkpt lat="50.5161" lon="5.30536">
        <ele>207</ele>
        <time>2020-03-15T09:04:05+01:00</time>
      </trkpt>
      <trkpt lat="50.51603" lon="5.30545">
        <ele>207</ele>
        <time>2020-03-15T09:04:10+01:00</time>
      </trkpt>
      <trkpt lat="50.51598" lon="5.3055">
        <ele>207</ele>
        <time>2020-03-15T09:04:15+01:00</time>
      </trkpt>
      <trkpt lat="50.51592" lon="5.30556">
        <ele>207</ele>
        <time>2020-03-15T09:04:20+01:00</time>
      </trkpt>
      <trkpt lat="50.51586" lon="5.30571">
        <ele>206</ele>
        <time>2020-03-15T09:04:25+01:00</time>
      </trkpt>
      <trkpt lat="50.5158" lon="5.30581">
        <ele>206</ele>
        <time>2020-03-15T09:04:30+01:00</time>
      </trkpt>
      <trkpt lat="50.51577" lon="5.30589">
        <ele>206</ele>
        <time>2020-03-15T09:04:35+01:00</time>
      </trkpt>
      <trkpt lat="50.51572" lon="5.306">
        <ele>207</ele>
        <time>2020-03-15T09:04:40+01:00</time>
      </trkpt>
      <trkpt lat="50.51566" lon="5.30614">
        <ele>208</ele>
        <time>2020-03-15T09:04:46+01:00</time>
      </trkpt>
      <trkpt lat="50.51562" lon="5.30623">
        <ele>208</ele>
        <time>2020-03-15T09:04:51+01:00</time>
      </trkpt>
      <trkpt lat="50.51556" lon="5.30632">
        <ele>209</ele>
        <time>2020-03-15T09:04:56+01:00</time>
      </trkpt>
      <trkpt lat="50.51551" lon="5.30638">
        <ele>210</ele>
        <time>2020-03-15T09:05:01+01:00</time>
      </trkpt>
      <trkpt lat="50.51545" lon="5.30648">
        <ele>210</ele>
        <time>2020-03-15T09:05:06+01:00</time>
      </trkpt>
      <trkpt lat="50.51541" lon="5.30653">
        <ele>211</ele>
        <time>2020-03-15T09:05:11+01:00</time>
      </trkpt>
      <trkpt lat="50.51535" lon="5.30666">
        <ele>211</ele>
        <time>2020-03-15T09:05:20+01:00</time>
      </trkpt>
      <trkpt lat="50.51533" lon="5.30678">
        <ele>211</ele>
        <time>2020-03-15T09:05:25+01:00</time>
      </trkpt>
      <trkpt lat="50.5153" lon="5.30691">
        <ele>212</ele>
        <time>2020-03-15T09:05:30+01:00</time>
      </trkpt>
      <trkpt lat="50.51526" lon="5.30698">
        <ele>212</ele>
        <time>2020-03-15T09:05:35+01:00</time>
      </trkpt>
      <trkpt lat="50.51524" lon="5.30707">
        <ele>212</ele>
        <time>2020-03-15T09:05:40+01:00</time>
      </trkpt>
      <trkpt lat="50.51524" lon="5.30714">
        <ele>212</ele>
        <time>2020-03-15T09:05:45+01:00</time>
      </trkpt>
      <trkpt lat="50.51523" lon="5.30726">
        <ele>212</ele>
        <time>2020-03-15T09:05:50+01:00</time>
      </trkpt>
      <trkpt lat="50.51525" lon="5.30741">
        <ele>212</ele>
        <time>2020-03-15T09:05:56+01:00</time>
      </trkpt>
      <trkpt lat="50.51527" lon="5.30751">
        <ele>212</ele>
        <time>2020-03-15T09:06:01+01:00</time>
      </trkpt>
      <trkpt lat="50.51531" lon="5.30768">
        <ele>212</ele>
        <time>2020-03-15T09:06:11+01:00</time>
      </trkpt>
      <trkpt lat="50.51535" lon="5.30793">
        <ele>213</ele>
        <time>2020-03-15T09:06:21+01:00</time>
      </trkpt>
      <trkpt lat="50.51536" lon="5.3081">
        <ele>214</ele>
        <time>2020-03-15T09:06:26+01:00</time>
      </trkpt>
      <trkpt lat="50.5154" lon="5.30818">
        <ele>214</ele>
        <time>2020-03-15T09:06:31+01:00</time>
      </trkpt>
      <trkpt lat="50.51545" lon="5.3083">
        <ele>214</ele>
        <time>2020-03-15T09:06:36+01:00</time>
      </trkpt>
      <trkpt lat="50.51544" lon="5.30843">
        <ele>215</ele>
        <time>2020-03-15T09:06:41+01:00</time>
      </trkpt>
      <trkpt lat="50.51544" lon="5.30855">
        <ele>215</ele>
        <time>2020-03-15T09:06:46+01:00</time>
      </trkpt>
      <trkpt lat="50.51546" lon="5.30879">
        <ele>216</ele>
        <time>2020-03-15T09:06:55+01:00</time>
      </trkpt>
      <trkpt lat="50.51545" lon="5.3089">
        <ele>217</ele>
        <time>2020-03-15T09:07:01+01:00</time>
      </trkpt>
      <trkpt lat="50.51545" lon="5.30899">
        <ele>217</ele>
        <time>2020-03-15T09:07:06+01:00</time>
      </trkpt>
      <trkpt lat="50.51546" lon="5.3091">
        <ele>218</ele>
        <time>2020-03-15T09:07:11+01:00</time>
      </trkpt>
      <trkpt lat="50.51542" lon="5.30923">
        <ele>219</ele>
        <time>2020-03-15T09:07:16+01:00</time>
      </trkpt>
      <trkpt lat="50.51543" lon="5.3094">
        <ele>219</ele>
        <time>2020-03-15T09:07:25+01:00</time>
      </trkpt>
      <trkpt lat="50.51541" lon="5.30949">
        <ele>220</ele>
        <time>2020-03-15T09:07:30+01:00</time>
      </trkpt>
      <trkpt lat="50.51541" lon="5.30961">
        <ele>220</ele>
        <time>2020-03-15T09:07:35+01:00</time>
      </trkpt>
      <trkpt lat="50.51539" lon="5.30975">
        <ele>221</ele>
        <time>2020-03-15T09:07:41+01:00</time>
      </trkpt>
      <trkpt lat="50.51536" lon="5.30991">
        <ele>222</ele>
        <time>2020-03-15T09:07:46+01:00</time>
      </trkpt>
      <trkpt lat="50.51533" lon="5.31008">
        <ele>222</ele>
        <time>2020-03-15T09:07:55+01:00</time>
      </trkpt>
      <trkpt lat="50.51531" lon="5.31021">
        <ele>222</ele>
        <time>2020-03-15T09:08:00+01:00</time>
      </trkpt>
      <trkpt lat="50.51531" lon="5.31033">
        <ele>222</ele>
        <time>2020-03-15T09:08:06+01:00</time>
      </trkpt>
      <trkpt lat="50.51529" lon="5.31061">
        <ele>222</ele>
        <time>2020-03-15T09:08:15+01:00</time>
      </trkpt>
      <trkpt lat="50.51527" lon="5.31072">
        <ele>222</ele>
        <time>2020-03-15T09:08:21+01:00</time>
      </trkpt>
      <trkpt lat="50.51526" lon="5.31082">
        <ele>222</ele>
        <time>2020-03-15T09:08:50+01:00</time>
      </trkpt>
      <trkpt lat="50.51525" lon="5.3109">
        <ele>222</ele>
        <time>2020-03-15T09:08:56+01:00</time>
      </trkpt>
      <trkpt lat="50.51528" lon="5.31102">
        <ele>222</ele>
        <time>2020-03-15T09:09:25+01:00</time>
      </trkpt>
      <trkpt lat="50.51532" lon="5.31112">
        <ele>222</ele>
        <time>2020-03-15T09:09:30+01:00</time>
      </trkpt>
      <trkpt lat="50.51536" lon="5.31126">
        <ele>222</ele>
        <time>2020-03-15T09:09:35+01:00</time>
      </trkpt>
      <trkpt lat="50.51538" lon="5.31138">
        <ele>222</ele>
        <time>2020-03-15T09:09:41+01:00</time>
      </trkpt>
      <trkpt lat="50.5154" lon="5.31152">
        <ele>222</ele>
        <time>2020-03-15T09:09:46+01:00</time>
      </trkpt>
      <trkpt lat="50.51544" lon="5.31161">
        <ele>221</ele>
        <time>2020-03-15T09:09:51+01:00</time>
      </trkpt>
      <trkpt lat="50.51548" lon="5.31167">
        <ele>221</ele>
        <time>2020-03-15T09:09:56+01:00</time>
      </trkpt>
      <trkpt lat="50.51551" lon="5.31175">
        <ele>221</ele>
        <time>2020-03-15T09:10:01+01:00</time>
      </trkpt>
      <trkpt lat="50.51556" lon="5.31186">
        <ele>222</ele>
        <time>2020-03-15T09:10:06+01:00</time>
      </trkpt>
      <trkpt lat="50.5156" lon="5.31194">
        <ele>222</ele>
        <time>2020-03-15T09:10:11+01:00</time>
      </trkpt>
      <trkpt lat="50.51568" lon="5.31212">
        <ele>222</ele>
        <time>2020-03-15T09:10:20+01:00</time>
      </trkpt>
      <trkpt lat="50.51571" lon="5.3122">
        <ele>222</ele>
        <time>2020-03-15T09:10:25+01:00</time>
      </trkpt>
      <trkpt lat="50.51575" lon="5.31227">
        <ele>223</ele>
        <time>2020-03-15T09:10:30+01:00</time>
      </trkpt>
      <trkpt lat="50.51581" lon="5.31234">
        <ele>223</ele>
        <time>2020-03-15T09:10:35+01:00</time>
      </trkpt>
      <trkpt lat="50.51586" lon="5.31241">
        <ele>223</ele>
        <time>2020-03-15T09:10:40+01:00</time>
      </trkpt>
      <trkpt lat="50.5159" lon="5.31248">
        <ele>223</ele>
        <time>2020-03-15T09:10:45+01:00</time>
      </trkpt>
      <trkpt lat="50.51595" lon="5.31256">
        <ele>223</ele>
        <time>2020-03-15T09:10:50+01:00</time>
      </trkpt>
      <trkpt lat="50.51602" lon="5.31267">
        <ele>224</ele>
        <time>2020-03-15T09:10:56+01:00</time>
      </trkpt>
      <trkpt lat="50.51605" lon="5.31274">
        <ele>224</ele>
        <time>2020-03-15T09:11:06+01:00</time>
      </trkpt>
      <trkpt lat="50.51611" lon="5.31275">
        <ele>224</ele>
        <time>2020-03-15T09:11:11+01:00</time>
      </trkpt>
      <trkpt lat="50.51619" lon="5.31282">
        <ele>225</ele>
        <time>2020-03-15T09:11:16+01:00</time>
      </trkpt>
      <trkpt lat="50.51626" lon="5.31292">
        <ele>225</ele>
        <time>2020-03-15T09:11:21+01:00</time>
      </trkpt>
      <trkpt lat="50.5163" lon="5.31304">
        <ele>225</ele>
        <time>2020-03-15T09:11:26+01:00</time>
      </trkpt>
      <trkpt lat="50.51631" lon="5.31325">
        <ele>225</ele>
        <time>2020-03-15T09:11:35+01:00</time>
      </trkpt>
      <trkpt lat="50.5163" lon="5.31339">
        <ele>226</ele>
        <time>2020-03-15T09:11:40+01:00</time>
      </trkpt>
      <trkpt lat="50.51631" lon="5.31352">
        <ele>226</ele>
        <time>2020-03-15T09:11:45+01:00</time>
      </trkpt>
      <trkpt lat="50.51634" lon="5.31367">
        <ele>226</ele>
        <time>2020-03-15T09:11:51+01:00</time>
      </trkpt>
      <trkpt lat="50.51634" lon="5.31382">
        <ele>227</ele>
        <time>2020-03-15T09:11:56+01:00</time>
      </trkpt>
      <trkpt lat="50.51634" lon="5.31406">
        <ele>228</ele>
        <time>2020-03-15T09:12:05+01:00</time>
      </trkpt>
      <trkpt lat="50.51634" lon="5.31418">
        <ele>228</ele>
        <time>2020-03-15T09:12:10+01:00</time>
      </trkpt>
      <trkpt lat="50.51636" lon="5.31431">
        <ele>228</ele>
        <time>2020-03-15T09:12:15+01:00</time>
      </trkpt>
      <trkpt lat="50.51637" lon="5.31443">
        <ele>228</ele>
        <time>2020-03-15T09:12:20+01:00</time>
      </trkpt>
      <trkpt lat="50.51638" lon="5.31452">
        <ele>229</ele>
        <time>2020-03-15T09:12:25+01:00</time>
      </trkpt>
      <trkpt lat="50.51639" lon="5.31465">
        <ele>229</ele>
        <time>2020-03-15T09:12:31+01:00</time>
      </trkpt>
      <trkpt lat="50.51638" lon="5.31477">
        <ele>229</ele>
        <time>2020-03-15T09:12:36+01:00</time>
      </trkpt>
      <trkpt lat="50.51639" lon="5.31489">
        <ele>229</ele>
        <time>2020-03-15T09:12:41+01:00</time>
      </trkpt>
      <trkpt lat="50.5164" lon="5.31501">
        <ele>230</ele>
        <time>2020-03-15T09:12:46+01:00</time>
      </trkpt>
      <trkpt lat="50.5164" lon="5.31514">
        <ele>231</ele>
        <time>2020-03-15T09:12:51+01:00</time>
      </trkpt>
      <trkpt lat="50.5164" lon="5.31527">
        <ele>231</ele>
        <time>2020-03-15T09:12:56+01:00</time>
      </trkpt>
      <trkpt lat="50.5164" lon="5.3155">
        <ele>233</ele>
        <time>2020-03-15T09:13:05+01:00</time>
      </trkpt>
      <trkpt lat="50.5164" lon="5.31563">
        <ele>234</ele>
        <time>2020-03-15T09:13:10+01:00</time>
      </trkpt>
      <trkpt lat="50.51641" lon="5.31575">
        <ele>235</ele>
        <time>2020-03-15T09:13:15+01:00</time>
      </trkpt>
      <trkpt lat="50.51641" lon="5.31591">
        <ele>236</ele>
        <time>2020-03-15T09:13:21+01:00</time>
      </trkpt>
      <trkpt lat="50.51639" lon="5.31602">
        <ele>237</ele>
        <time>2020-03-15T09:13:26+01:00</time>
      </trkpt>
      <trkpt lat="50.51627" lon="5.31617">
        <ele>239</ele>
        <time>2020-03-15T09:13:35+01:00</time>
      </trkpt>
      <trkpt lat="50.5162" lon="5.31623">
        <ele>240</ele>
        <time>2020-03-15T09:13:40+01:00</time>
      </trkpt>
      <trkpt lat="50.51615" lon="5.3163">
        <ele>241</ele>
        <time>2020-03-15T09:13:45+01:00</time>
      </trkpt>
      <trkpt lat="50.5161" lon="5.31632">
        <ele>241</ele>
        <time>2020-03-15T09:13:50+01:00</time>
      </trkpt>
      <trkpt lat="50.51605" lon="5.3163">
        <ele>242</ele>
        <time>2020-03-15T09:13:55+01:00</time>
      </trkpt>
      <trkpt lat="50.51597" lon="5.31632">
        <ele>242</ele>
        <time>2020-03-15T09:14:00+01:00</time>
      </trkpt>
      <trkpt lat="50.51589" lon="5.31632">
        <ele>243</ele>
        <time>2020-03-15T09:14:05+01:00</time>
      </trkpt>
      <trkpt lat="50.51581" lon="5.3163">
        <ele>244</ele>
        <time>2020-03-15T09:14:10+01:00</time>
      </trkpt>
      <trkpt lat="50.51575" lon="5.31631">
        <ele>243</ele>
        <time>2020-03-15T09:14:15+01:00</time>
      </trkpt>
      <trkpt lat="50.51566" lon="5.31629">
        <ele>243</ele>
        <time>2020-03-15T09:14:20+01:00</time>
      </trkpt>
      <trkpt lat="50.51559" lon="5.31625">
        <ele>243</ele>
        <time>2020-03-15T09:14:25+01:00</time>
      </trkpt>
      <trkpt lat="50.51554" lon="5.31621">
        <ele>243</ele>
        <time>2020-03-15T09:14:30+01:00</time>
      </trkpt>
      <trkpt lat="50.51548" lon="5.3162">
        <ele>243</ele>
        <time>2020-03-15T09:14:35+01:00</time>
      </trkpt>
      <trkpt lat="50.51539" lon="5.31616">
        <ele>243</ele>
        <time>2020-03-15T09:14:40+01:00</time>
      </trkpt>
      <trkpt lat="50.51534" lon="5.31615">
        <ele>242</ele>
        <time>2020-03-15T09:14:45+01:00</time>
      </trkpt>
      <trkpt lat="50.51527" lon="5.31612">
        <ele>242</ele>
        <time>2020-03-15T09:14:50+01:00</time>
      </trkpt>
      <trkpt lat="50.51521" lon="5.31608">
        <ele>242</ele>
        <time>2020-03-15T09:14:55+01:00</time>
      </trkpt>
      <trkpt lat="50.51514" lon="5.31606">
        <ele>242</ele>
        <time>2020-03-15T09:15:00+01:00</time>
      </trkpt>
      <trkpt lat="50.51507" lon="5.31604">
        <ele>242</ele>
        <time>2020-03-15T09:15:05+01:00</time>
      </trkpt>
      <trkpt lat="50.515" lon="5.316">
        <ele>241</ele>
        <time>2020-03-15T09:15:11+01:00</time>
      </trkpt>
      <trkpt lat="50.51485" lon="5.31591">
        <ele>241</ele>
        <time>2020-03-15T09:15:20+01:00</time>
      </trkpt>
      <trkpt lat="50.51479" lon="5.31584">
        <ele>241</ele>
        <time>2020-03-15T09:15:25+01:00</time>
      </trkpt>
      <trkpt lat="50.51466" lon="5.31578">
        <ele>241</ele>
        <time>2020-03-15T09:15:31+01:00</time>
      </trkpt>
      <trkpt lat="50.5146" lon="5.31567">
        <ele>241</ele>
        <time>2020-03-15T09:15:41+01:00</time>
      </trkpt>
      <trkpt lat="50.51454" lon="5.31558">
        <ele>240</ele>
        <time>2020-03-15T09:15:46+01:00</time>
      </trkpt>
      <trkpt lat="50.51452" lon="5.31552">
        <ele>240</ele>
        <time>2020-03-15T09:15:51+01:00</time>
      </trkpt>
      <trkpt lat="50.51451" lon="5.31549">
        <ele>240</ele>
        <time>2020-03-15T09:16:05+01:00</time>
      </trkpt>
      <trkpt lat="50.51448" lon="5.31551">
        <ele>240</ele>
        <time>2020-03-15T09:16:35+01:00</time>
      </trkpt>
      <trkpt lat="50.51439" lon="5.31546">
        <ele>240</ele>
        <time>2020-03-15T09:16:40+01:00</time>
      </trkpt>
      <trkpt lat="50.51432" lon="5.31541">
        <ele>240</ele>
        <time>2020-03-15T09:16:45+01:00</time>
      </trkpt>
      <trkpt lat="50.51426" lon="5.31536">
        <ele>239</ele>
        <time>2020-03-15T09:16:50+01:00</time>
      </trkpt>
      <trkpt lat="50.51416" lon="5.31532">
        <ele>239</ele>
        <time>2020-03-15T09:16:56+01:00</time>
      </trkpt>
      <trkpt lat="50.51404" lon="5.31523">
        <ele>239</ele>
        <time>2020-03-15T09:17:05+01:00</time>
      </trkpt>
      <trkpt lat="50.51397" lon="5.31516">
        <ele>239</ele>
        <time>2020-03-15T09:17:10+01:00</time>
      </trkpt>
      <trkpt lat="50.51391" lon="5.3151">
        <ele>239</ele>
        <time>2020-03-15T09:17:15+01:00</time>
      </trkpt>
      <trkpt lat="50.51384" lon="5.31505">
        <ele>239</ele>
        <time>2020-03-15T09:17:20+01:00</time>
      </trkpt>
      <trkpt lat="50.51377" lon="5.315">
        <ele>239</ele>
        <time>2020-03-15T09:17:26+01:00</time>
      </trkpt>
      <trkpt lat="50.51363" lon="5.31492">
        <ele>239</ele>
        <time>2020-03-15T09:17:36+01:00</time>
      </trkpt>
      <trkpt lat="50.51352" lon="5.31472">
        <ele>238</ele>
        <time>2020-03-15T09:17:46+01:00</time>
      </trkpt>
      <trkpt lat="50.51345" lon="5.31466">
        <ele>238</ele>
        <time>2020-03-15T09:17:51+01:00</time>
      </trkpt>
      <trkpt lat="50.51338" lon="5.31462">
        <ele>237</ele>
        <time>2020-03-15T09:17:56+01:00</time>
      </trkpt>
      <trkpt lat="50.51329" lon="5.31461">
        <ele>237</ele>
        <time>2020-03-15T09:18:01+01:00</time>
      </trkpt>
      <trkpt lat="50.51323" lon="5.31454">
        <ele>236</ele>
        <time>2020-03-15T09:18:06+01:00</time>
      </trkpt>
      <trkpt lat="50.51317" lon="5.31451">
        <ele>236</ele>
        <time>2020-03-15T09:18:11+01:00</time>
      </trkpt>
      <trkpt lat="50.51308" lon="5.31441">
        <ele>234</ele>
        <time>2020-03-15T09:18:20+01:00</time>
      </trkpt>
      <trkpt lat="50.513" lon="5.31434">
        <ele>234</ele>
        <time>2020-03-15T09:18:25+01:00</time>
      </trkpt>
      <trkpt lat="50.51294" lon="5.31429">
        <ele>233</ele>
        <time>2020-03-15T09:18:30+01:00</time>
      </trkpt>
      <trkpt lat="50.51289" lon="5.31424">
        <ele>232</ele>
        <time>2020-03-15T09:18:35+01:00</time>
      </trkpt>
      <trkpt lat="50.51284" lon="5.31415">
        <ele>232</ele>
        <time>2020-03-15T09:18:40+01:00</time>
      </trkpt>
      <trkpt lat="50.5128" lon="5.31406">
        <ele>231</ele>
        <time>2020-03-15T09:18:45+01:00</time>
      </trkpt>
      <trkpt lat="50.51272" lon="5.314">
        <ele>231</ele>
        <time>2020-03-15T09:18:50+01:00</time>
      </trkpt>
      <trkpt lat="50.51263" lon="5.31391">
        <ele>230</ele>
        <time>2020-03-15T09:18:55+01:00</time>
      </trkpt>
      <trkpt lat="50.51257" lon="5.31381">
        <ele>230</ele>
        <time>2020-03-15T09:19:00+01:00</time>
      </trkpt>
      <trkpt lat="50.51251" lon="5.31372">
        <ele>230</ele>
        <time>2020-03-15T09:19:05+01:00</time>
      </trkpt>
      <trkpt lat="50.51244" lon="5.31364">
        <ele>230</ele>
        <time>2020-03-15T09:19:11+01:00</time>
      </trkpt>
      <trkpt lat="50.51232" lon="5.31352">
        <ele>230</ele>
        <time>2020-03-15T09:19:20+01:00</time>
      </trkpt>
      <trkpt lat="50.51225" lon="5.31346">
        <ele>230</ele>
        <time>2020-03-15T09:19:25+01:00</time>
      </trkpt>
      <trkpt lat="50.51219" lon="5.31338">
        <ele>230</ele>
        <time>2020-03-15T09:19:30+01:00</time>
      </trkpt>
      <trkpt lat="50.51212" lon="5.31332">
        <ele>230</ele>
        <time>2020-03-15T09:19:35+01:00</time>
      </trkpt>
      <trkpt lat="50.51203" lon="5.31324">
        <ele>231</ele>
        <time>2020-03-15T09:19:40+01:00</time>
      </trkpt>
      <trkpt lat="50.51194" lon="5.31317">
        <ele>232</ele>
        <time>2020-03-15T09:19:46+01:00</time>
      </trkpt>
      <trkpt lat="50.51182" lon="5.31305">
        <ele>232</ele>
        <time>2020-03-15T09:19:55+01:00</time>
      </trkpt>
      <trkpt lat="50.51175" lon="5.313">
        <ele>233</ele>
        <time>2020-03-15T09:20:00+01:00</time>
      </trkpt>
      <trkpt lat="50.51168" lon="5.31295">
        <ele>233</ele>
        <time>2020-03-15T09:20:05+01:00</time>
      </trkpt>
      <trkpt lat="50.5116" lon="5.31289">
        <ele>233</ele>
        <time>2020-03-15T09:20:10+01:00</time>
      </trkpt>
      <trkpt lat="50.51151" lon="5.31281">
        <ele>234</ele>
        <time>2020-03-15T09:20:16+01:00</time>
      </trkpt>
      <trkpt lat="50.51144" lon="5.31273">
        <ele>234</ele>
        <time>2020-03-15T09:20:21+01:00</time>
      </trkpt>
      <trkpt lat="50.51138" lon="5.31265">
        <ele>235</ele>
        <time>2020-03-15T09:20:26+01:00</time>
      </trkpt>
      <trkpt lat="50.51131" lon="5.31256">
        <ele>235</ele>
        <time>2020-03-15T09:20:31+01:00</time>
      </trkpt>
      <trkpt lat="50.51122" lon="5.31245">
        <ele>236</ele>
        <time>2020-03-15T09:20:40+01:00</time>
      </trkpt>
      <trkpt lat="50.51114" lon="5.31236">
        <ele>237</ele>
        <time>2020-03-15T09:20:45+01:00</time>
      </trkpt>
      <trkpt lat="50.51107" lon="5.3123">
        <ele>237</ele>
        <time>2020-03-15T09:20:50+01:00</time>
      </trkpt>
      <trkpt lat="50.51099" lon="5.31223">
        <ele>238</ele>
        <time>2020-03-15T09:20:55+01:00</time>
      </trkpt>
      <trkpt lat="50.51091" lon="5.31219">
        <ele>238</ele>
        <time>2020-03-15T09:21:00+01:00</time>
      </trkpt>
      <trkpt lat="50.51085" lon="5.31214">
        <ele>238</ele>
        <time>2020-03-15T09:21:06+01:00</time>
      </trkpt>
      <trkpt lat="50.51079" lon="5.31208">
        <ele>238</ele>
        <time>2020-03-15T09:21:11+01:00</time>
      </trkpt>
      <trkpt lat="50.51072" lon="5.31204">
        <ele>239</ele>
        <time>2020-03-15T09:21:16+01:00</time>
      </trkpt>
      <trkpt lat="50.51066" lon="5.31198">
        <ele>239</ele>
        <time>2020-03-15T09:21:21+01:00</time>
      </trkpt>
      <trkpt lat="50.51059" lon="5.31191">
        <ele>239</ele>
        <time>2020-03-15T09:21:26+01:00</time>
      </trkpt>
      <trkpt lat="50.51053" lon="5.31184">
        <ele>239</ele>
        <time>2020-03-15T09:21:31+01:00</time>
      </trkpt>
      <trkpt lat="50.51041" lon="5.31169">
        <ele>239</ele>
        <time>2020-03-15T09:21:40+01:00</time>
      </trkpt>
      <trkpt lat="50.51034" lon="5.31162">
        <ele>239</ele>
        <time>2020-03-15T09:21:45+01:00</time>
      </trkpt>
      <trkpt lat="50.51026" lon="5.31155">
        <ele>239</ele>
        <time>2020-03-15T09:21:50+01:00</time>
      </trkpt>
      <trkpt lat="50.51019" lon="5.3115">
        <ele>239</ele>
        <time>2020-03-15T09:21:55+01:00</time>
      </trkpt>
      <trkpt lat="50.51012" lon="5.31144">
        <ele>239</ele>
        <time>2020-03-15T09:22:00+01:00</time>
      </trkpt>
      <trkpt lat="50.51005" lon="5.31138">
        <ele>239</ele>
        <time>2020-03-15T09:22:05+01:00</time>
      </trkpt>
      <trkpt lat="50.50998" lon="5.3113">
        <ele>239</ele>
        <time>2020-03-15T09:22:10+01:00</time>
      </trkpt>
      <trkpt lat="50.50993" lon="5.31123">
        <ele>240</ele>
        <time>2020-03-15T09:22:15+01:00</time>
      </trkpt>
      <trkpt lat="50.50987" lon="5.31117">
        <ele>240</ele>
        <time>2020-03-15T09:22:20+01:00</time>
      </trkpt>
      <trkpt lat="50.5098" lon="5.31113">
        <ele>240</ele>
        <time>2020-03-15T09:22:25+01:00</time>
      </trkpt>
      <trkpt lat="50.50974" lon="5.31106">
        <ele>240</ele>
        <time>2020-03-15T09:22:30+01:00</time>
      </trkpt>
      <trkpt lat="50.50966" lon="5.31097">
        <ele>241</ele>
        <time>2020-03-15T09:22:36+01:00</time>
      </trkpt>
      <trkpt lat="50.50959" lon="5.31092">
        <ele>241</ele>
        <time>2020-03-15T09:22:41+01:00</time>
      </trkpt>
      <trkpt lat="50.50947" lon="5.31082">
        <ele>241</ele>
        <time>2020-03-15T09:22:50+01:00</time>
      </trkpt>
      <trkpt lat="50.5094" lon="5.31075">
        <ele>242</ele>
        <time>2020-03-15T09:22:56+01:00</time>
      </trkpt>
      <trkpt lat="50.50932" lon="5.31068">
        <ele>242</ele>
        <time>2020-03-15T09:23:01+01:00</time>
      </trkpt>
      <trkpt lat="50.50924" lon="5.31061">
        <ele>242</ele>
        <time>2020-03-15T09:23:06+01:00</time>
      </trkpt>
      <trkpt lat="50.50917" lon="5.31055">
        <ele>243</ele>
        <time>2020-03-15T09:23:11+01:00</time>
      </trkpt>
      <trkpt lat="50.50911" lon="5.31048">
        <ele>243</ele>
        <time>2020-03-15T09:23:16+01:00</time>
      </trkpt>
      <trkpt lat="50.50903" lon="5.31041">
        <ele>244</ele>
        <time>2020-03-15T09:23:21+01:00</time>
      </trkpt>
      <trkpt lat="50.50896" lon="5.31033">
        <ele>244</ele>
        <time>2020-03-15T09:23:26+01:00</time>
      </trkpt>
      <trkpt lat="50.50892" lon="5.31027">
        <ele>245</ele>
        <time>2020-03-15T09:23:31+01:00</time>
      </trkpt>
      <trkpt lat="50.50882" lon="5.31018">
        <ele>245</ele>
        <time>2020-03-15T09:23:40+01:00</time>
      </trkpt>
      <trkpt lat="50.50875" lon="5.31012">
        <ele>245</ele>
        <time>2020-03-15T09:23:45+01:00</time>
      </trkpt>
      <trkpt lat="50.50868" lon="5.31005">
        <ele>246</ele>
        <time>2020-03-15T09:23:50+01:00</time>
      </trkpt>
      <trkpt lat="50.50863" lon="5.31001">
        <ele>246</ele>
        <time>2020-03-15T09:23:55+01:00</time>
      </trkpt>
      <trkpt lat="50.50862" lon="5.30991">
        <ele>246</ele>
        <time>2020-03-15T09:24:00+01:00</time>
      </trkpt>
      <trkpt lat="50.50863" lon="5.30979">
        <ele>246</ele>
        <time>2020-03-15T09:24:05+01:00</time>
      </trkpt>
      <trkpt lat="50.50869" lon="5.30974">
        <ele>246</ele>
        <time>2020-03-15T09:24:10+01:00</time>
      </trkpt>
      <trkpt lat="50.50876" lon="5.30978">
        <ele>246</ele>
        <time>2020-03-15T09:24:15+01:00</time>
      </trkpt>
      <trkpt lat="50.50883" lon="5.30981">
        <ele>246</ele>
        <time>2020-03-15T09:24:20+01:00</time>
      </trkpt>
      <trkpt lat="50.50891" lon="5.30981">
        <ele>246</ele>
        <time>2020-03-15T09:24:26+01:00</time>
      </trkpt>
      <trkpt lat="50.50903" lon="5.30979">
        <ele>246</ele>
        <time>2020-03-15T09:24:35+01:00</time>
      </trkpt>
      <trkpt lat="50.5091" lon="5.30976">
        <ele>246</ele>
        <time>2020-03-15T09:24:40+01:00</time>
      </trkpt>
      <trkpt lat="50.50919" lon="5.30975">
        <ele>246</ele>
        <time>2020-03-15T09:24:45+01:00</time>
      </trkpt>
      <trkpt lat="50.50925" lon="5.30972">
        <ele>246</ele>
        <time>2020-03-15T09:24:50+01:00</time>
      </trkpt>
      <trkpt lat="50.50932" lon="5.30963">
        <ele>247</ele>
        <time>2020-03-15T09:24:56+01:00</time>
      </trkpt>
      <trkpt lat="50.50937" lon="5.30955">
        <ele>247</ele>
        <time>2020-03-15T09:25:01+01:00</time>
      </trkpt>
      <trkpt lat="50.50938" lon="5.30947">
        <ele>247</ele>
        <time>2020-03-15T09:25:06+01:00</time>
      </trkpt>
      <trkpt lat="50.50937" lon="5.30932">
        <ele>247</ele>
        <time>2020-03-15T09:25:11+01:00</time>
      </trkpt>
      <trkpt lat="50.50935" lon="5.30919">
        <ele>248</ele>
        <time>2020-03-15T09:25:16+01:00</time>
      </trkpt>
      <trkpt lat="50.50934" lon="5.30908">
        <ele>248</ele>
        <time>2020-03-15T09:25:21+01:00</time>
      </trkpt>
      <trkpt lat="50.50932" lon="5.30887">
        <ele>247</ele>
        <time>2020-03-15T09:25:30+01:00</time>
      </trkpt>
      <trkpt lat="50.50933" lon="5.30876">
        <ele>247</ele>
        <time>2020-03-15T09:25:35+01:00</time>
      </trkpt>
      <trkpt lat="50.50932" lon="5.30863">
        <ele>247</ele>
        <time>2020-03-15T09:25:40+01:00</time>
      </trkpt>
      <trkpt lat="50.50932" lon="5.3085">
        <ele>247</ele>
        <time>2020-03-15T09:25:45+01:00</time>
      </trkpt>
      <trkpt lat="50.50931" lon="5.30835">
        <ele>247</ele>
        <time>2020-03-15T09:25:51+01:00</time>
      </trkpt>
      <trkpt lat="50.50932" lon="5.30819">
        <ele>247</ele>
        <time>2020-03-15T09:26:00+01:00</time>
      </trkpt>
      <trkpt lat="50.50931" lon="5.30809">
        <ele>247</ele>
        <time>2020-03-15T09:26:05+01:00</time>
      </trkpt>
      <trkpt lat="50.5093" lon="5.30795">
        <ele>247</ele>
        <time>2020-03-15T09:26:10+01:00</time>
      </trkpt>
      <trkpt lat="50.5093" lon="5.30781">
        <ele>247</ele>
        <time>2020-03-15T09:26:15+01:00</time>
      </trkpt>
      <trkpt lat="50.5093" lon="5.30766">
        <ele>247</ele>
        <time>2020-03-15T09:26:21+01:00</time>
      </trkpt>
      <trkpt lat="50.5093" lon="5.30744">
        <ele>247</ele>
        <time>2020-03-15T09:26:30+01:00</time>
      </trkpt>
      <trkpt lat="50.5093" lon="5.30734">
        <ele>247</ele>
        <time>2020-03-15T09:26:35+01:00</time>
      </trkpt>
      <trkpt lat="50.50929" lon="5.30723">
        <ele>248</ele>
        <time>2020-03-15T09:26:40+01:00</time>
      </trkpt>
      <trkpt lat="50.50927" lon="5.30714">
        <ele>248</ele>
        <time>2020-03-15T09:26:45+01:00</time>
      </trkpt>
      <trkpt lat="50.50925" lon="5.307">
        <ele>248</ele>
        <time>2020-03-15T09:26:50+01:00</time>
      </trkpt>
      <trkpt lat="50.50926" lon="5.30685">
        <ele>248</ele>
        <time>2020-03-15T09:26:56+01:00</time>
      </trkpt>
      <trkpt lat="50.50926" lon="5.30661">
        <ele>248</ele>
        <time>2020-03-15T09:27:05+01:00</time>
      </trkpt>
      <trkpt lat="50.50924" lon="5.30647">
        <ele>248</ele>
        <time>2020-03-15T09:27:11+01:00</time>
      </trkpt>
      <trkpt lat="50.50922" lon="5.30628">
        <ele>247</ele>
        <time>2020-03-15T09:27:21+01:00</time>
      </trkpt>
      <trkpt lat="50.50919" lon="5.30606">
        <ele>247</ele>
        <time>2020-03-15T09:27:30+01:00</time>
      </trkpt>
      <trkpt lat="50.5092" lon="5.30592">
        <ele>246</ele>
        <time>2020-03-15T09:27:35+01:00</time>
      </trkpt>
      <trkpt lat="50.5092" lon="5.30578">
        <ele>246</ele>
        <time>2020-03-15T09:27:40+01:00</time>
      </trkpt>
      <trkpt lat="50.50921" lon="5.30568">
        <ele>246</ele>
        <time>2020-03-15T09:27:45+01:00</time>
      </trkpt>
      <trkpt lat="50.5092" lon="5.30557">
        <ele>246</ele>
        <time>2020-03-15T09:27:50+01:00</time>
      </trkpt>
      <trkpt lat="50.5092" lon="5.30544">
        <ele>247</ele>
        <time>2020-03-15T09:27:55+01:00</time>
      </trkpt>
      <trkpt lat="50.5092" lon="5.30531">
        <ele>247</ele>
        <time>2020-03-15T09:28:00+01:00</time>
      </trkpt>
      <trkpt lat="50.5092" lon="5.30521">
        <ele>247</ele>
        <time>2020-03-15T09:28:05+01:00</time>
      </trkpt>
      <trkpt lat="50.50919" lon="5.30511">
        <ele>247</ele>
        <time>2020-03-15T09:28:10+01:00</time>
      </trkpt>
      <trkpt lat="50.50917" lon="5.30496">
        <ele>247</ele>
        <time>2020-03-15T09:28:16+01:00</time>
      </trkpt>
      <trkpt lat="50.50916" lon="5.30485">
        <ele>247</ele>
        <time>2020-03-15T09:28:21+01:00</time>
      </trkpt>
      <trkpt lat="50.50916" lon="5.30474">
        <ele>247</ele>
        <time>2020-03-15T09:28:26+01:00</time>
      </trkpt>
      <trkpt lat="50.50917" lon="5.30459">
        <ele>247</ele>
        <time>2020-03-15T09:28:31+01:00</time>
      </trkpt>
      <trkpt lat="50.50915" lon="5.30449">
        <ele>248</ele>
        <time>2020-03-15T09:28:36+01:00</time>
      </trkpt>
      <trkpt lat="50.50914" lon="5.30428">
        <ele>248</ele>
        <time>2020-03-15T09:28:45+01:00</time>
      </trkpt>
      <trkpt lat="50.50911" lon="5.30415">
        <ele>248</ele>
        <time>2020-03-15T09:28:51+01:00</time>
      </trkpt>
      <trkpt lat="50.50909" lon="5.30405">
        <ele>248</ele>
        <time>2020-03-15T09:28:56+01:00</time>
      </trkpt>
      <trkpt lat="50.50908" lon="5.3039">
        <ele>248</ele>
        <time>2020-03-15T09:29:01+01:00</time>
      </trkpt>
      <trkpt lat="50.50907" lon="5.30379">
        <ele>248</ele>
        <time>2020-03-15T09:29:06+01:00</time>
      </trkpt>
      <trkpt lat="50.50907" lon="5.30365">
        <ele>248</ele>
        <time>2020-03-15T09:29:11+01:00</time>
      </trkpt>
      <trkpt lat="50.50903" lon="5.30337">
        <ele>248</ele>
        <time>2020-03-15T09:29:20+01:00</time>
      </trkpt>
      <trkpt lat="50.50903" lon="5.30324">
        <ele>248</ele>
        <time>2020-03-15T09:29:25+01:00</time>
      </trkpt>
      <trkpt lat="50.50901" lon="5.30315">
        <ele>248</ele>
        <time>2020-03-15T09:29:30+01:00</time>
      </trkpt>
      <trkpt lat="50.50901" lon="5.30308">
        <ele>248</ele>
        <time>2020-03-15T09:29:35+01:00</time>
      </trkpt>
      <trkpt lat="50.50901" lon="5.30298">
        <ele>248</ele>
        <time>2020-03-15T09:29:40+01:00</time>
      </trkpt>
      <trkpt lat="50.50901" lon="5.30289">
        <ele>248</ele>
        <time>2020-03-15T09:29:45+01:00</time>
      </trkpt>
      <trkpt lat="50.50903" lon="5.30278">
        <ele>248</ele>
        <time>2020-03-15T09:29:51+01:00</time>
      </trkpt>
      <trkpt lat="50.50903" lon="5.30267">
        <ele>248</ele>
        <time>2020-03-15T09:29:56+01:00</time>
      </trkpt>
      <trkpt lat="50.50901" lon="5.30248">
        <ele>248</ele>
        <time>2020-03-15T09:30:05+01:00</time>
      </trkpt>
      <trkpt lat="50.509" lon="5.30239">
        <ele>248</ele>
        <time>2020-03-15T09:30:10+01:00</time>
      </trkpt>
      <trkpt lat="50.509" lon="5.30226">
        <ele>248</ele>
        <time>2020-03-15T09:30:15+01:00</time>
      </trkpt>
      <trkpt lat="50.509" lon="5.30215">
        <ele>248</ele>
        <time>2020-03-15T09:30:20+01:00</time>
      </trkpt>
      <trkpt lat="50.509" lon="5.30204">
        <ele>248</ele>
        <time>2020-03-15T09:30:25+01:00</time>
      </trkpt>
      <trkpt lat="50.50899" lon="5.30192">
        <ele>248</ele>
        <time>2020-03-15T09:30:31+01:00</time>
      </trkpt>
      <trkpt lat="50.50898" lon="5.30169">
        <ele>247</ele>
        <time>2020-03-15T09:30:41+01:00</time>
      </trkpt>
      <trkpt lat="50.50898" lon="5.30151">
        <ele>247</ele>
        <time>2020-03-15T09:30:50+01:00</time>
      </trkpt>
      <trkpt lat="50.509" lon="5.30141">
        <ele>247</ele>
        <time>2020-03-15T09:30:55+01:00</time>
      </trkpt>
      <trkpt lat="50.509" lon="5.30124">
        <ele>247</ele>
        <time>2020-03-15T09:31:01+01:00</time>
      </trkpt>
      <trkpt lat="50.50899" lon="5.301">
        <ele>247</ele>
        <time>2020-03-15T09:31:11+01:00</time>
      </trkpt>
      <trkpt lat="50.50896" lon="5.3008">
        <ele>246</ele>
        <time>2020-03-15T09:31:21+01:00</time>
      </trkpt>
      <trkpt lat="50.50897" lon="5.30066">
        <ele>246</ele>
        <time>2020-03-15T09:31:26+01:00</time>
      </trkpt>
      <trkpt lat="50.50895" lon="5.30055">
        <ele>245</ele>
        <time>2020-03-15T09:31:31+01:00</time>
      </trkpt>
      <trkpt lat="50.50895" lon="5.30045">
        <ele>245</ele>
        <time>2020-03-15T09:31:36+01:00</time>
      </trkpt>
      <trkpt lat="50.50894" lon="5.30036">
        <ele>245</ele>
        <time>2020-03-15T09:31:41+01:00</time>
      </trkpt>
      <trkpt lat="50.50895" lon="5.30023">
        <ele>245</ele>
        <time>2020-03-15T09:31:46+01:00</time>
      </trkpt>
      <trkpt lat="50.50891" lon="5.30002">
        <ele>244</ele>
        <time>2020-03-15T09:31:56+01:00</time>
      </trkpt>
      <trkpt lat="50.50891" lon="5.29991">
        <ele>244</ele>
        <time>2020-03-15T09:32:01+01:00</time>
      </trkpt>
      <trkpt lat="50.5089" lon="5.2998">
        <ele>244</ele>
        <time>2020-03-15T09:32:06+01:00</time>
      </trkpt>
      <trkpt lat="50.5089" lon="5.2997">
        <ele>244</ele>
        <time>2020-03-15T09:32:11+01:00</time>
      </trkpt>
      <trkpt lat="50.5089" lon="5.29962">
        <ele>244</ele>
        <time>2020-03-15T09:32:16+01:00</time>
      </trkpt>
      <trkpt lat="50.50885" lon="5.29944">
        <ele>244</ele>
        <time>2020-03-15T09:32:25+01:00</time>
      </trkpt>
      <trkpt lat="50.50885" lon="5.29934">
        <ele>244</ele>
        <time>2020-03-15T09:32:30+01:00</time>
      </trkpt>
      <trkpt lat="50.50884" lon="5.29919">
        <ele>244</ele>
        <time>2020-03-15T09:32:40+01:00</time>
      </trkpt>
      <trkpt lat="50.50884" lon="5.29907">
        <ele>244</ele>
        <time>2020-03-15T09:32:46+01:00</time>
      </trkpt>
      <trkpt lat="50.50889" lon="5.29888">
        <ele>245</ele>
        <time>2020-03-15T09:32:56+01:00</time>
      </trkpt>
      <trkpt lat="50.50887" lon="5.29877">
        <ele>245</ele>
        <time>2020-03-15T09:33:01+01:00</time>
      </trkpt>
      <trkpt lat="50.50886" lon="5.29866">
        <ele>245</ele>
        <time>2020-03-15T09:33:06+01:00</time>
      </trkpt>
      <trkpt lat="50.50885" lon="5.29855">
        <ele>245</ele>
        <time>2020-03-15T09:33:11+01:00</time>
      </trkpt>
      <trkpt lat="50.50884" lon="5.29845">
        <ele>245</ele>
        <time>2020-03-15T09:33:16+01:00</time>
      </trkpt>
      <trkpt lat="50.50882" lon="5.29833">
        <ele>246</ele>
        <time>2020-03-15T09:33:25+01:00</time>
      </trkpt>
      <trkpt lat="50.50882" lon="5.29823">
        <ele>245</ele>
        <time>2020-03-15T09:33:30+01:00</time>
      </trkpt>
      <trkpt lat="50.50881" lon="5.29812">
        <ele>245</ele>
        <time>2020-03-15T09:33:35+01:00</time>
      </trkpt>
      <trkpt lat="50.50881" lon="5.29803">
        <ele>245</ele>
        <time>2020-03-15T09:33:40+01:00</time>
      </trkpt>
      <trkpt lat="50.5088" lon="5.29792">
        <ele>245</ele>
        <time>2020-03-15T09:33:45+01:00</time>
      </trkpt>
      <trkpt lat="50.5088" lon="5.29779">
        <ele>245</ele>
        <time>2020-03-15T09:33:51+01:00</time>
      </trkpt>
      <trkpt lat="50.5088" lon="5.2977">
        <ele>245</ele>
        <time>2020-03-15T09:33:56+01:00</time>
      </trkpt>
      <trkpt lat="50.50878" lon="5.29753">
        <ele>245</ele>
        <time>2020-03-15T09:34:05+01:00</time>
      </trkpt>
      <trkpt lat="50.50878" lon="5.29741">
        <ele>245</ele>
        <time>2020-03-15T09:34:10+01:00</time>
      </trkpt>
      <trkpt lat="50.50876" lon="5.29728">
        <ele>245</ele>
        <time>2020-03-15T09:34:15+01:00</time>
      </trkpt>
      <trkpt lat="50.50876" lon="5.29716">
        <ele>245</ele>
        <time>2020-03-15T09:34:21+01:00</time>
      </trkpt>
      <trkpt lat="50.50875" lon="5.29703">
        <ele>244</ele>
        <time>2020-03-15T09:34:26+01:00</time>
      </trkpt>
      <trkpt lat="50.50873" lon="5.29693">
        <ele>244</ele>
        <time>2020-03-15T09:34:31+01:00</time>
      </trkpt>
      <trkpt lat="50.50874" lon="5.29681">
        <ele>244</ele>
        <time>2020-03-15T09:34:36+01:00</time>
      </trkpt>
      <trkpt lat="50.50874" lon="5.29671">
        <ele>244</ele>
        <time>2020-03-15T09:34:41+01:00</time>
      </trkpt>
      <trkpt lat="50.50875" lon="5.29659">
        <ele>245</ele>
        <time>2020-03-15T09:34:46+01:00</time>
      </trkpt>
      <trkpt lat="50.50877" lon="5.29638">
        <ele>245</ele>
        <time>2020-03-15T09:34:55+01:00</time>
      </trkpt>
      <trkpt lat="50.50877" lon="5.29626">
        <ele>245</ele>
        <time>2020-03-15T09:35:00+01:00</time>
      </trkpt>
      <trkpt lat="50.50874" lon="5.29614">
        <ele>245</ele>
        <time>2020-03-15T09:35:05+01:00</time>
      </trkpt>
      <trkpt lat="50.50872" lon="5.29601">
        <ele>245</ele>
        <time>2020-03-15T09:35:10+01:00</time>
      </trkpt>
      <trkpt lat="50.50872" lon="5.29589">
        <ele>245</ele>
        <time>2020-03-15T09:35:15+01:00</time>
      </trkpt>
      <trkpt lat="50.50874" lon="5.29579">
        <ele>245</ele>
        <time>2020-03-15T09:35:20+01:00</time>
      </trkpt>
      <trkpt lat="50.50876" lon="5.29569">
        <ele>244</ele>
        <time>2020-03-15T09:35:25+01:00</time>
      </trkpt>
      <trkpt lat="50.50875" lon="5.29558">
        <ele>244</ele>
        <time>2020-03-15T09:35:30+01:00</time>
      </trkpt>
      <trkpt lat="50.50876" lon="5.29549">
        <ele>243</ele>
        <time>2020-03-15T09:35:35+01:00</time>
      </trkpt>
      <trkpt lat="50.50877" lon="5.29534">
        <ele>242</ele>
        <time>2020-03-15T09:35:40+01:00</time>
      </trkpt>
      <trkpt lat="50.50877" lon="5.29522">
        <ele>242</ele>
        <time>2020-03-15T09:35:45+01:00</time>
      </trkpt>
      <trkpt lat="50.50879" lon="5.2951">
        <ele>241</ele>
        <time>2020-03-15T09:35:50+01:00</time>
      </trkpt>
      <trkpt lat="50.50882" lon="5.29499">
        <ele>241</ele>
        <time>2020-03-15T09:35:55+01:00</time>
      </trkpt>
      <trkpt lat="50.50882" lon="5.29485">
        <ele>240</ele>
        <time>2020-03-15T09:36:00+01:00</time>
      </trkpt>
      <trkpt lat="50.50887" lon="5.29473">
        <ele>240</ele>
        <time>2020-03-15T09:36:05+01:00</time>
      </trkpt>
      <trkpt lat="50.50891" lon="5.29461">
        <ele>240</ele>
        <time>2020-03-15T09:36:10+01:00</time>
      </trkpt>
      <trkpt lat="50.50894" lon="5.29451">
        <ele>240</ele>
        <time>2020-03-15T09:36:15+01:00</time>
      </trkpt>
      <trkpt lat="50.509" lon="5.29425">
        <ele>240</ele>
        <time>2020-03-15T09:36:25+01:00</time>
      </trkpt>
      <trkpt lat="50.50903" lon="5.29418">
        <ele>240</ele>
        <time>2020-03-15T09:36:30+01:00</time>
      </trkpt>
      <trkpt lat="50.50906" lon="5.29408">
        <ele>240</ele>
        <time>2020-03-15T09:36:35+01:00</time>
      </trkpt>
      <trkpt lat="50.50909" lon="5.29397">
        <ele>240</ele>
        <time>2020-03-15T09:36:40+01:00</time>
      </trkpt>
      <trkpt lat="50.50912" lon="5.29389">
        <ele>240</ele>
        <time>2020-03-15T09:36:45+01:00</time>
      </trkpt>
      <trkpt lat="50.50916" lon="5.29374">
        <ele>240</ele>
        <time>2020-03-15T09:36:51+01:00</time>
      </trkpt>
      <trkpt lat="50.50917" lon="5.29363">
        <ele>240</ele>
        <time>2020-03-15T09:36:56+01:00</time>
      </trkpt>
      <trkpt lat="50.50919" lon="5.29352">
        <ele>240</ele>
        <time>2020-03-15T09:37:01+01:00</time>
      </trkpt>
      <trkpt lat="50.50919" lon="5.29338">
        <ele>240</ele>
        <time>2020-03-15T09:37:06+01:00</time>
      </trkpt>
      <trkpt lat="50.5092" lon="5.29326">
        <ele>240</ele>
        <time>2020-03-15T09:37:11+01:00</time>
      </trkpt>
      <trkpt lat="50.50923" lon="5.29316">
        <ele>240</ele>
        <time>2020-03-15T09:37:16+01:00</time>
      </trkpt>
      <trkpt lat="50.50929" lon="5.29301">
        <ele>239</ele>
        <time>2020-03-15T09:37:25+01:00</time>
      </trkpt>
      <trkpt lat="50.50934" lon="5.29291">
        <ele>239</ele>
        <time>2020-03-15T09:37:30+01:00</time>
      </trkpt>
      <trkpt lat="50.50938" lon="5.2928">
        <ele>239</ele>
        <time>2020-03-15T09:37:36+01:00</time>
      </trkpt>
      <trkpt lat="50.50943" lon="5.29257">
        <ele>239</ele>
        <time>2020-03-15T09:37:46+01:00</time>
      </trkpt>
      <trkpt lat="50.5095" lon="5.29235">
        <ele>240</ele>
        <time>2020-03-15T09:37:55+01:00</time>
      </trkpt>
      <trkpt lat="50.50953" lon="5.29225">
        <ele>240</ele>
        <time>2020-03-15T09:38:00+01:00</time>
      </trkpt>
      <trkpt lat="50.50958" lon="5.29214">
        <ele>240</ele>
        <time>2020-03-15T09:38:05+01:00</time>
      </trkpt>
      <trkpt lat="50.50962" lon="5.29204">
        <ele>241</ele>
        <time>2020-03-15T09:38:10+01:00</time>
      </trkpt>
      <trkpt lat="50.50967" lon="5.29194">
        <ele>241</ele>
        <time>2020-03-15T09:38:15+01:00</time>
      </trkpt>
      <trkpt lat="50.50972" lon="5.29185">
        <ele>241</ele>
        <time>2020-03-15T09:38:20+01:00</time>
      </trkpt>
      <trkpt lat="50.50978" lon="5.29173">
        <ele>242</ele>
        <time>2020-03-15T09:38:26+01:00</time>
      </trkpt>
      <trkpt lat="50.50983" lon="5.29165">
        <ele>242</ele>
        <time>2020-03-15T09:38:31+01:00</time>
      </trkpt>
      <trkpt lat="50.50987" lon="5.29154">
        <ele>243</ele>
        <time>2020-03-15T09:38:36+01:00</time>
      </trkpt>
      <trkpt lat="50.50993" lon="5.29129">
        <ele>243</ele>
        <time>2020-03-15T09:38:45+01:00</time>
      </trkpt>
      <trkpt lat="50.50995" lon="5.29116">
        <ele>243</ele>
        <time>2020-03-15T09:38:50+01:00</time>
      </trkpt>
      <trkpt lat="50.50998" lon="5.29104">
        <ele>244</ele>
        <time>2020-03-15T09:38:55+01:00</time>
      </trkpt>
      <trkpt lat="50.51003" lon="5.29091">
        <ele>244</ele>
        <time>2020-03-15T09:39:01+01:00</time>
      </trkpt>
      <trkpt lat="50.51007" lon="5.2908">
        <ele>244</ele>
        <time>2020-03-15T09:39:06+01:00</time>
      </trkpt>
      <trkpt lat="50.51011" lon="5.29059">
        <ele>243</ele>
        <time>2020-03-15T09:39:15+01:00</time>
      </trkpt>
      <trkpt lat="50.51016" lon="5.29051">
        <ele>243</ele>
        <time>2020-03-15T09:39:20+01:00</time>
      </trkpt>
      <trkpt lat="50.51018" lon="5.29039">
        <ele>242</ele>
        <time>2020-03-15T09:39:25+01:00</time>
      </trkpt>
      <trkpt lat="50.51021" lon="5.2903">
        <ele>242</ele>
        <time>2020-03-15T09:39:30+01:00</time>
      </trkpt>
      <trkpt lat="50.51025" lon="5.29021">
        <ele>241</ele>
        <time>2020-03-15T09:39:35+01:00</time>
      </trkpt>
      <trkpt lat="50.51028" lon="5.29007">
        <ele>240</ele>
        <time>2020-03-15T09:39:41+01:00</time>
      </trkpt>
      <trkpt lat="50.51031" lon="5.28994">
        <ele>240</ele>
        <time>2020-03-15T09:39:46+01:00</time>
      </trkpt>
      <trkpt lat="50.51032" lon="5.28976">
        <ele>239</ele>
        <time>2020-03-15T09:39:56+01:00</time>
      </trkpt>
      <trkpt lat="50.51032" lon="5.28965">
        <ele>239</ele>
        <time>2020-03-15T09:40:01+01:00</time>
      </trkpt>
      <trkpt lat="50.51032" lon="5.28944">
        <ele>238</ele>
        <time>2020-03-15T09:40:10+01:00</time>
      </trkpt>
      <trkpt lat="50.51033" lon="5.28934">
        <ele>237</ele>
        <time>2020-03-15T09:40:15+01:00</time>
      </trkpt>
      <trkpt lat="50.51035" lon="5.28922">
        <ele>237</ele>
        <time>2020-03-15T09:40:20+01:00</time>
      </trkpt>
      <trkpt lat="50.51037" lon="5.28911">
        <ele>237</ele>
        <time>2020-03-15T09:40:25+01:00</time>
      </trkpt>
      <trkpt lat="50.51038" lon="5.28901">
        <ele>237</ele>
        <time>2020-03-15T09:40:31+01:00</time>
      </trkpt>
      <trkpt lat="50.51041" lon="5.28888">
        <ele>237</ele>
        <time>2020-03-15T09:40:36+01:00</time>
      </trkpt>
      <trkpt lat="50.51041" lon="5.2888">
        <ele>237</ele>
        <time>2020-03-15T09:40:41+01:00</time>
      </trkpt>
      <trkpt lat="50.51043" lon="5.28868">
        <ele>237</ele>
        <time>2020-03-15T09:40:46+01:00</time>
      </trkpt>
      <trkpt lat="50.51045" lon="5.28857">
        <ele>237</ele>
        <time>2020-03-15T09:40:51+01:00</time>
      </trkpt>
      <trkpt lat="50.51044" lon="5.28839">
        <ele>237</ele>
        <time>2020-03-15T09:41:00+01:00</time>
      </trkpt>
      <trkpt lat="50.51044" lon="5.28826">
        <ele>237</ele>
        <time>2020-03-15T09:41:05+01:00</time>
      </trkpt>
      <trkpt lat="50.51045" lon="5.28815">
        <ele>237</ele>
        <time>2020-03-15T09:41:10+01:00</time>
      </trkpt>
      <trkpt lat="50.51047" lon="5.28803">
        <ele>238</ele>
        <time>2020-03-15T09:41:16+01:00</time>
      </trkpt>
      <trkpt lat="50.51048" lon="5.28792">
        <ele>238</ele>
        <time>2020-03-15T09:41:21+01:00</time>
      </trkpt>
      <trkpt lat="50.51049" lon="5.2878">
        <ele>238</ele>
        <time>2020-03-15T09:41:26+01:00</time>
      </trkpt>
      <trkpt lat="50.51052" lon="5.2876">
        <ele>239</ele>
        <time>2020-03-15T09:41:35+01:00</time>
      </trkpt>
      <trkpt lat="50.51052" lon="5.28748">
        <ele>240</ele>
        <time>2020-03-15T09:41:40+01:00</time>
      </trkpt>
      <trkpt lat="50.51053" lon="5.28735">
        <ele>239</ele>
        <time>2020-03-15T09:41:45+01:00</time>
      </trkpt>
      <trkpt lat="50.51051" lon="5.28724">
        <ele>239</ele>
        <time>2020-03-15T09:41:50+01:00</time>
      </trkpt>
      <trkpt lat="50.51051" lon="5.28716">
        <ele>239</ele>
        <time>2020-03-15T09:41:55+01:00</time>
      </trkpt>
      <trkpt lat="50.5105" lon="5.28704">
        <ele>238</ele>
        <time>2020-03-15T09:42:01+01:00</time>
      </trkpt>
      <trkpt lat="50.5105" lon="5.28694">
        <ele>238</ele>
        <time>2020-03-15T09:42:06+01:00</time>
      </trkpt>
      <trkpt lat="50.5105" lon="5.28685">
        <ele>238</ele>
        <time>2020-03-15T09:42:11+01:00</time>
      </trkpt>
      <trkpt lat="50.51049" lon="5.28667">
        <ele>237</ele>
        <time>2020-03-15T09:42:20+01:00</time>
      </trkpt>
      <trkpt lat="50.51049" lon="5.28655">
        <ele>237</ele>
        <time>2020-03-15T09:42:25+01:00</time>
      </trkpt>
      <trkpt lat="50.51048" lon="5.28641">
        <ele>237</ele>
        <time>2020-03-15T09:42:31+01:00</time>
      </trkpt>
      <trkpt lat="50.51047" lon="5.28632">
        <ele>236</ele>
        <time>2020-03-15T09:42:36+01:00</time>
      </trkpt>
      <trkpt lat="50.51045" lon="5.28619">
        <ele>236</ele>
        <time>2020-03-15T09:42:41+01:00</time>
      </trkpt>
      <trkpt lat="50.51045" lon="5.28608">
        <ele>235</ele>
        <time>2020-03-15T09:42:46+01:00</time>
      </trkpt>
      <trkpt lat="50.51043" lon="5.28587">
        <ele>235</ele>
        <time>2020-03-15T09:42:55+01:00</time>
      </trkpt>
      <trkpt lat="50.51043" lon="5.28573">
        <ele>234</ele>
        <time>2020-03-15T09:43:00+01:00</time>
      </trkpt>
      <trkpt lat="50.51042" lon="5.28559">
        <ele>234</ele>
        <time>2020-03-15T09:43:06+01:00</time>
      </trkpt>
      <trkpt lat="50.51041" lon="5.28539">
        <ele>234</ele>
        <time>2020-03-15T09:43:15+01:00</time>
      </trkpt>
      <trkpt lat="50.51042" lon="5.28528">
        <ele>234</ele>
        <time>2020-03-15T09:43:20+01:00</time>
      </trkpt>
      <trkpt lat="50.51041" lon="5.28514">
        <ele>233</ele>
        <time>2020-03-15T09:43:26+01:00</time>
      </trkpt>
      <trkpt lat="50.51041" lon="5.28502">
        <ele>233</ele>
        <time>2020-03-15T09:43:31+01:00</time>
      </trkpt>
      <trkpt lat="50.5104" lon="5.2849">
        <ele>233</ele>
        <time>2020-03-15T09:43:36+01:00</time>
      </trkpt>
      <trkpt lat="50.51039" lon="5.2848">
        <ele>233</ele>
        <time>2020-03-15T09:43:41+01:00</time>
      </trkpt>
      <trkpt lat="50.51038" lon="5.28468">
        <ele>232</ele>
        <time>2020-03-15T09:43:46+01:00</time>
      </trkpt>
      <trkpt lat="50.51038" lon="5.2846">
        <ele>232</ele>
        <time>2020-03-15T09:43:51+01:00</time>
      </trkpt>
      <trkpt lat="50.51038" lon="5.2844">
        <ele>232</ele>
        <time>2020-03-15T09:44:00+01:00</time>
      </trkpt>
      <trkpt lat="50.51037" lon="5.28428">
        <ele>232</ele>
        <time>2020-03-15T09:44:05+01:00</time>
      </trkpt>
      <trkpt lat="50.51037" lon="5.28416">
        <ele>232</ele>
        <time>2020-03-15T09:44:10+01:00</time>
      </trkpt>
      <trkpt lat="50.51035" lon="5.28406">
        <ele>231</ele>
        <time>2020-03-15T09:44:15+01:00</time>
      </trkpt>
      <trkpt lat="50.51034" lon="5.28397">
        <ele>231</ele>
        <time>2020-03-15T09:44:20+01:00</time>
      </trkpt>
      <trkpt lat="50.51033" lon="5.28383">
        <ele>231</ele>
        <time>2020-03-15T09:44:25+01:00</time>
      </trkpt>
      <trkpt lat="50.51033" lon="5.28372">
        <ele>231</ele>
        <time>2020-03-15T09:44:30+01:00</time>
      </trkpt>
      <trkpt lat="50.51034" lon="5.28362">
        <ele>231</ele>
        <time>2020-03-15T09:44:35+01:00</time>
      </trkpt>
      <trkpt lat="50.51034" lon="5.28354">
        <ele>231</ele>
        <time>2020-03-15T09:44:40+01:00</time>
      </trkpt>
      <trkpt lat="50.51032" lon="5.28344">
        <ele>230</ele>
        <time>2020-03-15T09:44:45+01:00</time>
      </trkpt>
      <trkpt lat="50.51032" lon="5.28335">
        <ele>230</ele>
        <time>2020-03-15T09:44:50+01:00</time>
      </trkpt>
      <trkpt lat="50.51032" lon="5.28325">
        <ele>230</ele>
        <time>2020-03-15T09:44:56+01:00</time>
      </trkpt>
      <trkpt lat="50.5103" lon="5.28312">
        <ele>230</ele>
        <time>2020-03-15T09:45:01+01:00</time>
      </trkpt>
      <trkpt lat="50.51027" lon="5.28301">
        <ele>230</ele>
        <time>2020-03-15T09:45:06+01:00</time>
      </trkpt>
      <trkpt lat="50.51026" lon="5.28289">
        <ele>230</ele>
        <time>2020-03-15T09:45:11+01:00</time>
      </trkpt>
      <trkpt lat="50.51026" lon="5.28267">
        <ele>230</ele>
        <time>2020-03-15T09:45:20+01:00</time>
      </trkpt>
      <trkpt lat="50.51025" lon="5.28259">
        <ele>230</ele>
        <time>2020-03-15T09:45:26+01:00</time>
      </trkpt>
      <trkpt lat="50.51024" lon="5.28248">
        <ele>230</ele>
        <time>2020-03-15T09:45:46+01:00</time>
      </trkpt>
      <trkpt lat="50.51022" lon="5.28239">
        <ele>230</ele>
        <time>2020-03-15T09:45:51+01:00</time>
      </trkpt>
      <trkpt lat="50.51021" lon="5.28231">
        <ele>230</ele>
        <time>2020-03-15T09:45:56+01:00</time>
      </trkpt>
      <trkpt lat="50.51019" lon="5.28222">
        <ele>231</ele>
        <time>2020-03-15T09:46:01+01:00</time>
      </trkpt>
      <trkpt lat="50.51019" lon="5.282">
        <ele>232</ele>
        <time>2020-03-15T09:46:15+01:00</time>
      </trkpt>
      <trkpt lat="50.51018" lon="5.28183">
        <ele>232</ele>
        <time>2020-03-15T09:46:25+01:00</time>
      </trkpt>
      <trkpt lat="50.51016" lon="5.28172">
        <ele>233</ele>
        <time>2020-03-15T09:46:31+01:00</time>
      </trkpt>
      <trkpt lat="50.51018" lon="5.28157">
        <ele>233</ele>
        <time>2020-03-15T09:46:40+01:00</time>
      </trkpt>
      <trkpt lat="50.5102" lon="5.28143">
        <ele>233</ele>
        <time>2020-03-15T09:46:50+01:00</time>
      </trkpt>
      <trkpt lat="50.51019" lon="5.28129">
        <ele>233</ele>
        <time>2020-03-15T09:47:01+01:00</time>
      </trkpt>
      <trkpt lat="50.51018" lon="5.2812">
        <ele>234</ele>
        <time>2020-03-15T09:47:06+01:00</time>
      </trkpt>
      <trkpt lat="50.51021" lon="5.28098">
        <ele>234</ele>
        <time>2020-03-15T09:47:20+01:00</time>
      </trkpt>
      <trkpt lat="50.51019" lon="5.2808">
        <ele>234</ele>
        <time>2020-03-15T09:47:31+01:00</time>
      </trkpt>
      <trkpt lat="50.51016" lon="5.28061">
        <ele>234</ele>
        <time>2020-03-15T09:47:40+01:00</time>
      </trkpt>
      <trkpt lat="50.51013" lon="5.28051">
        <ele>234</ele>
        <time>2020-03-15T09:47:46+01:00</time>
      </trkpt>
      <trkpt lat="50.51009" lon="5.28043">
        <ele>234</ele>
        <time>2020-03-15T09:47:51+01:00</time>
      </trkpt>
      <trkpt lat="50.51009" lon="5.28037">
        <ele>233</ele>
        <time>2020-03-15T09:48:05+01:00</time>
      </trkpt>
      <trkpt lat="50.5101" lon="5.28024">
        <ele>233</ele>
        <time>2020-03-15T09:48:10+01:00</time>
      </trkpt>
      <trkpt lat="50.51011" lon="5.28016">
        <ele>233</ele>
        <time>2020-03-15T09:48:15+01:00</time>
      </trkpt>
      <trkpt lat="50.51009" lon="5.28005">
        <ele>233</ele>
        <time>2020-03-15T09:48:20+01:00</time>
      </trkpt>
      <trkpt lat="50.5101" lon="5.27994">
        <ele>233</ele>
        <time>2020-03-15T09:48:25+01:00</time>
      </trkpt>
      <trkpt lat="50.51009" lon="5.27986">
        <ele>233</ele>
        <time>2020-03-15T09:48:30+01:00</time>
      </trkpt>
      <trkpt lat="50.51008" lon="5.27975">
        <ele>233</ele>
        <time>2020-03-15T09:48:36+01:00</time>
      </trkpt>
      <trkpt lat="50.51009" lon="5.27964">
        <ele>233</ele>
        <time>2020-03-15T09:48:41+01:00</time>
      </trkpt>
      <trkpt lat="50.51011" lon="5.27952">
        <ele>233</ele>
        <time>2020-03-15T09:48:46+01:00</time>
      </trkpt>
      <trkpt lat="50.51009" lon="5.27942">
        <ele>233</ele>
        <time>2020-03-15T09:48:51+01:00</time>
      </trkpt>
      <trkpt lat="50.51011" lon="5.27934">
        <ele>233</ele>
        <time>2020-03-15T09:49:00+01:00</time>
      </trkpt>
      <trkpt lat="50.51013" lon="5.2792">
        <ele>233</ele>
        <time>2020-03-15T09:49:11+01:00</time>
      </trkpt>
      <trkpt lat="50.51017" lon="5.27908">
        <ele>233</ele>
        <time>2020-03-15T09:49:16+01:00</time>
      </trkpt>
      <trkpt lat="50.51019" lon="5.27898">
        <ele>233</ele>
        <time>2020-03-15T09:49:21+01:00</time>
      </trkpt>
      <trkpt lat="50.51019" lon="5.27889">
        <ele>233</ele>
        <time>2020-03-15T09:49:26+01:00</time>
      </trkpt>
      <trkpt lat="50.5102" lon="5.27878">
        <ele>234</ele>
        <time>2020-03-15T09:49:31+01:00</time>
      </trkpt>
      <trkpt lat="50.5102" lon="5.27865">
        <ele>234</ele>
        <time>2020-03-15T09:49:41+01:00</time>
      </trkpt>
      <trkpt lat="50.51022" lon="5.27855">
        <ele>235</ele>
        <time>2020-03-15T09:49:46+01:00</time>
      </trkpt>
      <trkpt lat="50.51025" lon="5.27846">
        <ele>235</ele>
        <time>2020-03-15T09:50:00+01:00</time>
      </trkpt>
      <trkpt lat="50.5103" lon="5.27837">
        <ele>234</ele>
        <time>2020-03-15T09:50:10+01:00</time>
      </trkpt>
      <trkpt lat="50.51036" lon="5.27826">
        <ele>234</ele>
        <time>2020-03-15T09:50:20+01:00</time>
      </trkpt>
      <trkpt lat="50.51038" lon="5.27816">
        <ele>234</ele>
        <time>2020-03-15T09:50:25+01:00</time>
      </trkpt>
      <trkpt lat="50.51042" lon="5.27803">
        <ele>234</ele>
        <time>2020-03-15T09:50:30+01:00</time>
      </trkpt>
      <trkpt lat="50.51045" lon="5.2779">
        <ele>234</ele>
        <time>2020-03-15T09:50:35+01:00</time>
      </trkpt>
      <trkpt lat="50.51048" lon="5.27779">
        <ele>234</ele>
        <time>2020-03-15T09:50:40+01:00</time>
      </trkpt>
      <trkpt lat="50.51053" lon="5.27773">
        <ele>234</ele>
        <time>2020-03-15T09:50:45+01:00</time>
      </trkpt>
      <trkpt lat="50.51059" lon="5.27772">
        <ele>233</ele>
        <time>2020-03-15T09:50:55+01:00</time>
      </trkpt>
      <trkpt lat="50.51063" lon="5.27775">
        <ele>233</ele>
        <time>2020-03-15T09:51:00+01:00</time>
      </trkpt>
      <trkpt lat="50.5107" lon="5.27776">
        <ele>232</ele>
        <time>2020-03-15T09:51:05+01:00</time>
      </trkpt>
      <trkpt lat="50.5108" lon="5.27776">
        <ele>231</ele>
        <time>2020-03-15T09:51:11+01:00</time>
      </trkpt>
      <trkpt lat="50.51093" lon="5.27778">
        <ele>230</ele>
        <time>2020-03-15T09:51:16+01:00</time>
      </trkpt>
      <trkpt lat="50.51102" lon="5.27778">
        <ele>230</ele>
        <time>2020-03-15T09:51:21+01:00</time>
      </trkpt>
      <trkpt lat="50.51109" lon="5.27779">
        <ele>229</ele>
        <time>2020-03-15T09:51:26+01:00</time>
      </trkpt>
      <trkpt lat="50.51116" lon="5.27776">
        <ele>229</ele>
        <time>2020-03-15T09:51:31+01:00</time>
      </trkpt>
      <trkpt lat="50.51123" lon="5.27778">
        <ele>229</ele>
        <time>2020-03-15T09:51:36+01:00</time>
      </trkpt>
      <trkpt lat="50.51133" lon="5.27772">
        <ele>229</ele>
        <time>2020-03-15T09:51:45+01:00</time>
      </trkpt>
      <trkpt lat="50.51143" lon="5.27766">
        <ele>229</ele>
        <time>2020-03-15T09:51:55+01:00</time>
      </trkpt>
      <trkpt lat="50.51152" lon="5.27764">
        <ele>228</ele>
        <time>2020-03-15T09:52:05+01:00</time>
      </trkpt>
      <trkpt lat="50.51162" lon="5.2776">
        <ele>228</ele>
        <time>2020-03-15T09:52:10+01:00</time>
      </trkpt>
      <trkpt lat="50.51169" lon="5.27758">
        <ele>227</ele>
        <time>2020-03-15T09:52:15+01:00</time>
      </trkpt>
      <trkpt lat="50.51176" lon="5.27761">
        <ele>227</ele>
        <time>2020-03-15T09:52:20+01:00</time>
      </trkpt>
      <trkpt lat="50.51183" lon="5.27761">
        <ele>226</ele>
        <time>2020-03-15T09:52:26+01:00</time>
      </trkpt>
      <trkpt lat="50.51194" lon="5.27758">
        <ele>225</ele>
        <time>2020-03-15T09:52:35+01:00</time>
      </trkpt>
      <trkpt lat="50.51204" lon="5.27751">
        <ele>224</ele>
        <time>2020-03-15T09:52:41+01:00</time>
      </trkpt>
      <trkpt lat="50.51216" lon="5.27744">
        <ele>224</ele>
        <time>2020-03-15T09:52:50+01:00</time>
      </trkpt>
      <trkpt lat="50.51226" lon="5.27742">
        <ele>223</ele>
        <time>2020-03-15T09:52:56+01:00</time>
      </trkpt>
      <trkpt lat="50.51233" lon="5.27738">
        <ele>223</ele>
        <time>2020-03-15T09:53:01+01:00</time>
      </trkpt>
      <trkpt lat="50.51239" lon="5.27733">
        <ele>222</ele>
        <time>2020-03-15T09:53:06+01:00</time>
      </trkpt>
      <trkpt lat="50.51247" lon="5.27727">
        <ele>222</ele>
        <time>2020-03-15T09:53:11+01:00</time>
      </trkpt>
      <trkpt lat="50.5126" lon="5.2772">
        <ele>221</ele>
        <time>2020-03-15T09:53:20+01:00</time>
      </trkpt>
      <trkpt lat="50.51265" lon="5.27717">
        <ele>221</ele>
        <time>2020-03-15T09:53:25+01:00</time>
      </trkpt>
      <trkpt lat="50.51275" lon="5.27715">
        <ele>220</ele>
        <time>2020-03-15T09:53:35+01:00</time>
      </trkpt>
      <trkpt lat="50.51283" lon="5.27711">
        <ele>220</ele>
        <time>2020-03-15T09:53:40+01:00</time>
      </trkpt>
      <trkpt lat="50.51291" lon="5.2771">
        <ele>219</ele>
        <time>2020-03-15T09:53:45+01:00</time>
      </trkpt>
      <trkpt lat="50.51298" lon="5.27706">
        <ele>218</ele>
        <time>2020-03-15T09:53:50+01:00</time>
      </trkpt>
      <trkpt lat="50.51304" lon="5.27704">
        <ele>218</ele>
        <time>2020-03-15T09:53:55+01:00</time>
      </trkpt>
      <trkpt lat="50.51313" lon="5.27701">
        <ele>217</ele>
        <time>2020-03-15T09:54:00+01:00</time>
      </trkpt>
      <trkpt lat="50.51323" lon="5.27696">
        <ele>216</ele>
        <time>2020-03-15T09:54:05+01:00</time>
      </trkpt>
      <trkpt lat="50.51331" lon="5.27698">
        <ele>215</ele>
        <time>2020-03-15T09:54:16+01:00</time>
      </trkpt>
      <trkpt lat="50.51337" lon="5.27696">
        <ele>215</ele>
        <time>2020-03-15T09:54:21+01:00</time>
      </trkpt>
      <trkpt lat="50.51343" lon="5.27693">
        <ele>215</ele>
        <time>2020-03-15T09:54:26+01:00</time>
      </trkpt>
      <trkpt lat="50.51348" lon="5.27691">
        <ele>214</ele>
        <time>2020-03-15T09:54:31+01:00</time>
      </trkpt>
      <trkpt lat="50.51353" lon="5.27692">
        <ele>214</ele>
        <time>2020-03-15T09:54:41+01:00</time>
      </trkpt>
      <trkpt lat="50.51369" lon="5.27693">
        <ele>213</ele>
        <time>2020-03-15T09:54:50+01:00</time>
      </trkpt>
      <trkpt lat="50.51377" lon="5.27694">
        <ele>213</ele>
        <time>2020-03-15T09:54:55+01:00</time>
      </trkpt>
      <trkpt lat="50.51389" lon="5.27697">
        <ele>212</ele>
        <time>2020-03-15T09:55:01+01:00</time>
      </trkpt>
      <trkpt lat="50.514" lon="5.27698">
        <ele>211</ele>
        <time>2020-03-15T09:55:06+01:00</time>
      </trkpt>
      <trkpt lat="50.51411" lon="5.27703">
        <ele>210</ele>
        <time>2020-03-15T09:55:15+01:00</time>
      </trkpt>
      <trkpt lat="50.51418" lon="5.27704">
        <ele>210</ele>
        <time>2020-03-15T09:55:21+01:00</time>
      </trkpt>
      <trkpt lat="50.51427" lon="5.27708">
        <ele>208</ele>
        <time>2020-03-15T09:55:26+01:00</time>
      </trkpt>
      <trkpt lat="50.51434" lon="5.27714">
        <ele>207</ele>
        <time>2020-03-15T09:55:31+01:00</time>
      </trkpt>
      <trkpt lat="50.51447" lon="5.27727">
        <ele>205</ele>
        <time>2020-03-15T09:55:40+01:00</time>
      </trkpt>
      <trkpt lat="50.51452" lon="5.27733">
        <ele>204</ele>
        <time>2020-03-15T09:55:45+01:00</time>
      </trkpt>
      <trkpt lat="50.51462" lon="5.27731">
        <ele>202</ele>
        <time>2020-03-15T09:55:55+01:00</time>
      </trkpt>
      <trkpt lat="50.51467" lon="5.27731">
        <ele>202</ele>
        <time>2020-03-15T09:56:00+01:00</time>
      </trkpt>
      <trkpt lat="50.51474" lon="5.27731">
        <ele>201</ele>
        <time>2020-03-15T09:56:05+01:00</time>
      </trkpt>
      <trkpt lat="50.51483" lon="5.27737">
        <ele>199</ele>
        <time>2020-03-15T09:56:10+01:00</time>
      </trkpt>
      <trkpt lat="50.51495" lon="5.27741">
        <ele>197</ele>
        <time>2020-03-15T09:56:20+01:00</time>
      </trkpt>
      <trkpt lat="50.51503" lon="5.27746">
        <ele>196</ele>
        <time>2020-03-15T09:56:25+01:00</time>
      </trkpt>
      <trkpt lat="50.51507" lon="5.27747">
        <ele>196</ele>
        <time>2020-03-15T09:56:30+01:00</time>
      </trkpt>
      <trkpt lat="50.51516" lon="5.27745">
        <ele>195</ele>
        <time>2020-03-15T09:56:35+01:00</time>
      </trkpt>
      <trkpt lat="50.51523" lon="5.27739">
        <ele>195</ele>
        <time>2020-03-15T09:56:40+01:00</time>
      </trkpt>
      <trkpt lat="50.51529" lon="5.27734">
        <ele>195</ele>
        <time>2020-03-15T09:56:45+01:00</time>
      </trkpt>
      <trkpt lat="50.51538" lon="5.27725">
        <ele>195</ele>
        <time>2020-03-15T09:56:56+01:00</time>
      </trkpt>
      <trkpt lat="50.51545" lon="5.2772">
        <ele>194</ele>
        <time>2020-03-15T09:57:06+01:00</time>
      </trkpt>
      <trkpt lat="50.51552" lon="5.27722">
        <ele>194</ele>
        <time>2020-03-15T09:57:20+01:00</time>
      </trkpt>
      <trkpt lat="50.51561" lon="5.27716">
        <ele>193</ele>
        <time>2020-03-15T09:57:25+01:00</time>
      </trkpt>
      <trkpt lat="50.51568" lon="5.27713">
        <ele>193</ele>
        <time>2020-03-15T09:57:30+01:00</time>
      </trkpt>
      <trkpt lat="50.51573" lon="5.27711">
        <ele>192</ele>
        <time>2020-03-15T09:57:35+01:00</time>
      </trkpt>
      <trkpt lat="50.51579" lon="5.27702">
        <ele>192</ele>
        <time>2020-03-15T09:57:46+01:00</time>
      </trkpt>
      <trkpt lat="50.51584" lon="5.27694">
        <ele>192</ele>
        <time>2020-03-15T09:57:51+01:00</time>
      </trkpt>
      <trkpt lat="50.516" lon="5.27662">
        <ele>191</ele>
        <time>2020-03-15T09:58:05+01:00</time>
      </trkpt>
      <trkpt lat="50.51606" lon="5.27654">
        <ele>191</ele>
        <time>2020-03-15T09:58:10+01:00</time>
      </trkpt>
      <trkpt lat="50.51617" lon="5.27641">
        <ele>190</ele>
        <time>2020-03-15T09:58:20+01:00</time>
      </trkpt>
      <trkpt lat="50.51621" lon="5.27634">
        <ele>189</ele>
        <time>2020-03-15T09:58:25+01:00</time>
      </trkpt>
      <trkpt lat="50.51627" lon="5.27624">
        <ele>188</ele>
        <time>2020-03-15T09:58:30+01:00</time>
      </trkpt>
      <trkpt lat="50.5163" lon="5.27618">
        <ele>188</ele>
        <time>2020-03-15T09:58:35+01:00</time>
      </trkpt>
      <trkpt lat="50.51637" lon="5.27609">
        <ele>187</ele>
        <time>2020-03-15T09:58:40+01:00</time>
      </trkpt>
      <trkpt lat="50.5164" lon="5.27603">
        <ele>186</ele>
        <time>2020-03-15T09:58:45+01:00</time>
      </trkpt>
      <trkpt lat="50.51645" lon="5.27598">
        <ele>185</ele>
        <time>2020-03-15T09:58:50+01:00</time>
      </trkpt>
      <trkpt lat="50.51652" lon="5.27587">
        <ele>184</ele>
        <time>2020-03-15T09:58:55+01:00</time>
      </trkpt>
      <trkpt lat="50.51658" lon="5.27575">
        <ele>183</ele>
        <time>2020-03-15T09:59:00+01:00</time>
      </trkpt>
      <trkpt lat="50.51661" lon="5.27565">
        <ele>183</ele>
        <time>2020-03-15T09:59:05+01:00</time>
      </trkpt>
      <trkpt lat="50.51663" lon="5.27557">
        <ele>182</ele>
        <time>2020-03-15T09:59:10+01:00</time>
      </trkpt>
      <trkpt lat="50.51672" lon="5.27554">
        <ele>181</ele>
        <time>2020-03-15T09:59:20+01:00</time>
      </trkpt>
      <trkpt lat="50.51677" lon="5.27548">
        <ele>181</ele>
        <time>2020-03-15T09:59:25+01:00</time>
      </trkpt>
      <trkpt lat="50.51682" lon="5.27537">
        <ele>181</ele>
        <time>2020-03-15T09:59:30+01:00</time>
      </trkpt>
      <trkpt lat="50.51685" lon="5.27527">
        <ele>181</ele>
        <time>2020-03-15T09:59:35+01:00</time>
      </trkpt>
      <trkpt lat="50.51686" lon="5.27521">
        <ele>181</ele>
        <time>2020-03-15T09:59:40+01:00</time>
      </trkpt>
      <trkpt lat="50.51687" lon="5.27508">
        <ele>182</ele>
        <time>2020-03-15T09:59:46+01:00</time>
      </trkpt>
      <trkpt lat="50.51685" lon="5.27492">
        <ele>182</ele>
        <time>2020-03-15T09:59:55+01:00</time>
      </trkpt>
      <trkpt lat="50.51686" lon="5.27483">
        <ele>182</ele>
        <time>2020-03-15T10:00:00+01:00</time>
      </trkpt>
      <trkpt lat="50.51692" lon="5.27466">
        <ele>181</ele>
        <time>2020-03-15T10:00:05+01:00</time>
      </trkpt>
      <trkpt lat="50.51698" lon="5.27458">
        <ele>179</ele>
        <time>2020-03-15T10:00:10+01:00</time>
      </trkpt>
      <trkpt lat="50.51709" lon="5.27442">
        <ele>177</ele>
        <time>2020-03-15T10:00:16+01:00</time>
      </trkpt>
      <trkpt lat="50.51718" lon="5.27427">
        <ele>174</ele>
        <time>2020-03-15T10:00:26+01:00</time>
      </trkpt>
      <trkpt lat="50.51721" lon="5.27409">
        <ele>173</ele>
        <time>2020-03-15T10:00:36+01:00</time>
      </trkpt>
      <trkpt lat="50.51728" lon="5.27402">
        <ele>171</ele>
        <time>2020-03-15T10:00:41+01:00</time>
      </trkpt>
      <trkpt lat="50.51734" lon="5.27394">
        <ele>169</ele>
        <time>2020-03-15T10:00:46+01:00</time>
      </trkpt>
      <trkpt lat="50.51742" lon="5.27385">
        <ele>167</ele>
        <time>2020-03-15T10:00:51+01:00</time>
      </trkpt>
      <trkpt lat="50.51748" lon="5.27376">
        <ele>165</ele>
        <time>2020-03-15T10:00:56+01:00</time>
      </trkpt>
      <trkpt lat="50.51753" lon="5.27368">
        <ele>164</ele>
        <time>2020-03-15T10:01:01+01:00</time>
      </trkpt>
      <trkpt lat="50.51764" lon="5.27353">
        <ele>162</ele>
        <time>2020-03-15T10:01:10+01:00</time>
      </trkpt>
      <trkpt lat="50.51772" lon="5.27346">
        <ele>162</ele>
        <time>2020-03-15T10:01:15+01:00</time>
      </trkpt>
      <trkpt lat="50.51779" lon="5.27338">
        <ele>161</ele>
        <time>2020-03-15T10:01:20+01:00</time>
      </trkpt>
      <trkpt lat="50.51785" lon="5.2733">
        <ele>161</ele>
        <time>2020-03-15T10:01:30+01:00</time>
      </trkpt>
      <trkpt lat="50.51798" lon="5.27312">
        <ele>161</ele>
        <time>2020-03-15T10:01:40+01:00</time>
      </trkpt>
      <trkpt lat="50.51803" lon="5.27305">
        <ele>161</ele>
        <time>2020-03-15T10:01:45+01:00</time>
      </trkpt>
      <trkpt lat="50.51809" lon="5.27298">
        <ele>161</ele>
        <time>2020-03-15T10:01:50+01:00</time>
      </trkpt>
      <trkpt lat="50.51815" lon="5.2729">
        <ele>161</ele>
        <time>2020-03-15T10:01:55+01:00</time>
      </trkpt>
      <trkpt lat="50.51819" lon="5.27282">
        <ele>161</ele>
        <time>2020-03-15T10:02:00+01:00</time>
      </trkpt>
      <trkpt lat="50.51821" lon="5.27273">
        <ele>161</ele>
        <time>2020-03-15T10:02:05+01:00</time>
      </trkpt>
      <trkpt lat="50.51828" lon="5.27266">
        <ele>161</ele>
        <time>2020-03-15T10:02:11+01:00</time>
      </trkpt>
      <trkpt lat="50.51836" lon="5.27255">
        <ele>161</ele>
        <time>2020-03-15T10:02:16+01:00</time>
      </trkpt>
      <trkpt lat="50.51844" lon="5.27246">
        <ele>160</ele>
        <time>2020-03-15T10:02:21+01:00</time>
      </trkpt>
      <trkpt lat="50.51849" lon="5.27242">
        <ele>160</ele>
        <time>2020-03-15T10:02:26+01:00</time>
      </trkpt>
      <trkpt lat="50.51856" lon="5.27237">
        <ele>159</ele>
        <time>2020-03-15T10:02:31+01:00</time>
      </trkpt>
      <trkpt lat="50.51865" lon="5.27226">
        <ele>159</ele>
        <time>2020-03-15T10:02:40+01:00</time>
      </trkpt>
      <trkpt lat="50.51872" lon="5.27218">
        <ele>158</ele>
        <time>2020-03-15T10:02:50+01:00</time>
      </trkpt>
      <trkpt lat="50.5188" lon="5.27208">
        <ele>158</ele>
        <time>2020-03-15T10:03:00+01:00</time>
      </trkpt>
      <trkpt lat="50.51888" lon="5.27198">
        <ele>157</ele>
        <time>2020-03-15T10:03:05+01:00</time>
      </trkpt>
      <trkpt lat="50.51894" lon="5.2719">
        <ele>156</ele>
        <time>2020-03-15T10:03:10+01:00</time>
      </trkpt>
      <trkpt lat="50.51899" lon="5.27185">
        <ele>155</ele>
        <time>2020-03-15T10:03:15+01:00</time>
      </trkpt>
      <trkpt lat="50.51902" lon="5.27177">
        <ele>155</ele>
        <time>2020-03-15T10:03:20+01:00</time>
      </trkpt>
      <trkpt lat="50.51903" lon="5.2717">
        <ele>155</ele>
        <time>2020-03-15T10:03:25+01:00</time>
      </trkpt>
      <trkpt lat="50.51907" lon="5.27157">
        <ele>156</ele>
        <time>2020-03-15T10:03:30+01:00</time>
      </trkpt>
      <trkpt lat="50.51908" lon="5.27148">
        <ele>156</ele>
        <time>2020-03-15T10:03:35+01:00</time>
      </trkpt>
      <trkpt lat="50.5191" lon="5.27139">
        <ele>157</ele>
        <time>2020-03-15T10:03:41+01:00</time>
      </trkpt>
      <trkpt lat="50.51914" lon="5.2713">
        <ele>157</ele>
        <time>2020-03-15T10:03:46+01:00</time>
      </trkpt>
      <trkpt lat="50.51918" lon="5.2712">
        <ele>157</ele>
        <time>2020-03-15T10:03:51+01:00</time>
      </trkpt>
      <trkpt lat="50.5192" lon="5.27112">
        <ele>158</ele>
        <time>2020-03-15T10:03:56+01:00</time>
      </trkpt>
      <trkpt lat="50.5192" lon="5.27102">
        <ele>159</ele>
        <time>2020-03-15T10:04:10+01:00</time>
      </trkpt>
      <trkpt lat="50.51922" lon="5.27092">
        <ele>159</ele>
        <time>2020-03-15T10:04:15+01:00</time>
      </trkpt>
      <trkpt lat="50.51923" lon="5.27082">
        <ele>160</ele>
        <time>2020-03-15T10:04:21+01:00</time>
      </trkpt>
      <trkpt lat="50.51921" lon="5.27065">
        <ele>161</ele>
        <time>2020-03-15T10:04:31+01:00</time>
      </trkpt>
      <trkpt lat="50.5192" lon="5.27057">
        <ele>162</ele>
        <time>2020-03-15T10:04:36+01:00</time>
      </trkpt>
      <trkpt lat="50.51922" lon="5.27037">
        <ele>163</ele>
        <time>2020-03-15T10:04:45+01:00</time>
      </trkpt>
      <trkpt lat="50.51925" lon="5.27027">
        <ele>162</ele>
        <time>2020-03-15T10:04:50+01:00</time>
      </trkpt>
      <trkpt lat="50.51927" lon="5.27015">
        <ele>163</ele>
        <time>2020-03-15T10:04:55+01:00</time>
      </trkpt>
      <trkpt lat="50.51926" lon="5.27014">
        <ele>163</ele>
        <time>2020-03-15T10:05:00+01:00</time>
      </trkpt>
      <trkpt lat="50.51923" lon="5.27011">
        <ele>164</ele>
        <time>2020-03-15T10:05:05+01:00</time>
      </trkpt>
      <trkpt lat="50.51923" lon="5.27009">
        <ele>164</ele>
        <time>2020-03-15T10:05:11+01:00</time>
      </trkpt>
      <trkpt lat="50.51919" lon="5.27003">
        <ele>165</ele>
        <time>2020-03-15T10:05:16+01:00</time>
      </trkpt>
      <trkpt lat="50.51917" lon="5.26998">
        <ele>166</ele>
        <time>2020-03-15T10:05:21+01:00</time>
      </trkpt>
      <trkpt lat="50.51915" lon="5.26992">
        <ele>166</ele>
        <time>2020-03-15T10:05:35+01:00</time>
      </trkpt>
      <trkpt lat="50.5191" lon="5.26986">
        <ele>167</ele>
        <time>2020-03-15T10:05:46+01:00</time>
      </trkpt>
      <trkpt lat="50.51904" lon="5.26975">
        <ele>168</ele>
        <time>2020-03-15T10:05:56+01:00</time>
      </trkpt>
      <trkpt lat="50.51899" lon="5.26966">
        <ele>169</ele>
        <time>2020-03-15T10:06:01+01:00</time>
      </trkpt>
      <trkpt lat="50.51891" lon="5.26954">
        <ele>171</ele>
        <time>2020-03-15T10:06:10+01:00</time>
      </trkpt>
      <trkpt lat="50.51884" lon="5.26945">
        <ele>172</ele>
        <time>2020-03-15T10:06:20+01:00</time>
      </trkpt>
      <trkpt lat="50.51879" lon="5.26937">
        <ele>173</ele>
        <time>2020-03-15T10:06:25+01:00</time>
      </trkpt>
      <trkpt lat="50.51874" lon="5.26931">
        <ele>174</ele>
        <time>2020-03-15T10:06:35+01:00</time>
      </trkpt>
      <trkpt lat="50.5187" lon="5.26926">
        <ele>175</ele>
        <time>2020-03-15T10:06:40+01:00</time>
      </trkpt>
      <trkpt lat="50.51861" lon="5.26916">
        <ele>176</ele>
        <time>2020-03-15T10:06:45+01:00</time>
      </trkpt>
      <trkpt lat="50.51856" lon="5.26912">
        <ele>177</ele>
        <time>2020-03-15T10:06:51+01:00</time>
      </trkpt>
      <trkpt lat="50.51851" lon="5.2691">
        <ele>178</ele>
        <time>2020-03-15T10:07:01+01:00</time>
      </trkpt>
      <trkpt lat="50.51845" lon="5.26901">
        <ele>179</ele>
        <time>2020-03-15T10:07:06+01:00</time>
      </trkpt>
      <trkpt lat="50.51831" lon="5.26894">
        <ele>181</ele>
        <time>2020-03-15T10:07:16+01:00</time>
      </trkpt>
      <trkpt lat="50.51823" lon="5.26889">
        <ele>182</ele>
        <time>2020-03-15T10:07:25+01:00</time>
      </trkpt>
      <trkpt lat="50.51815" lon="5.26881">
        <ele>183</ele>
        <time>2020-03-15T10:07:35+01:00</time>
      </trkpt>
      <trkpt lat="50.51808" lon="5.26883">
        <ele>185</ele>
        <time>2020-03-15T10:07:40+01:00</time>
      </trkpt>
      <trkpt lat="50.51802" lon="5.26883">
        <ele>186</ele>
        <time>2020-03-15T10:07:45+01:00</time>
      </trkpt>
      <trkpt lat="50.51796" lon="5.26885">
        <ele>187</ele>
        <time>2020-03-15T10:07:55+01:00</time>
      </trkpt>
      <trkpt lat="50.51791" lon="5.26887">
        <ele>188</ele>
        <time>2020-03-15T10:08:00+01:00</time>
      </trkpt>
      <trkpt lat="50.51776" lon="5.26888">
        <ele>191</ele>
        <time>2020-03-15T10:08:26+01:00</time>
      </trkpt>
      <trkpt lat="50.51756" lon="5.26888">
        <ele>195</ele>
        <time>2020-03-15T10:08:35+01:00</time>
      </trkpt>
      <trkpt lat="50.51746" lon="5.26889">
        <ele>197</ele>
        <time>2020-03-15T10:08:40+01:00</time>
      </trkpt>
      <trkpt lat="50.5174" lon="5.26892">
        <ele>197</ele>
        <time>2020-03-15T10:08:45+01:00</time>
      </trkpt>
      <trkpt lat="50.51732" lon="5.26896">
        <ele>198</ele>
        <time>2020-03-15T10:08:51+01:00</time>
      </trkpt>
      <trkpt lat="50.51725" lon="5.26899">
        <ele>199</ele>
        <time>2020-03-15T10:08:56+01:00</time>
      </trkpt>
      <trkpt lat="50.51717" lon="5.26903">
        <ele>200</ele>
        <time>2020-03-15T10:09:01+01:00</time>
      </trkpt>
      <trkpt lat="50.51713" lon="5.26908">
        <ele>200</ele>
        <time>2020-03-15T10:09:06+01:00</time>
      </trkpt>
      <trkpt lat="50.51713" lon="5.26918">
        <ele>201</ele>
        <time>2020-03-15T10:09:16+01:00</time>
      </trkpt>
      <trkpt lat="50.51709" lon="5.26938">
        <ele>202</ele>
        <time>2020-03-15T10:09:25+01:00</time>
      </trkpt>
      <trkpt lat="50.51705" lon="5.2695">
        <ele>203</ele>
        <time>2020-03-15T10:09:30+01:00</time>
      </trkpt>
      <trkpt lat="50.51698" lon="5.26963">
        <ele>204</ele>
        <time>2020-03-15T10:09:40+01:00</time>
      </trkpt>
      <trkpt lat="50.51686" lon="5.26968">
        <ele>205</ele>
        <time>2020-03-15T10:09:50+01:00</time>
      </trkpt>
      <trkpt lat="50.51681" lon="5.2697">
        <ele>205</ele>
        <time>2020-03-15T10:09:55+01:00</time>
      </trkpt>
      <trkpt lat="50.51666" lon="5.26964">
        <ele>206</ele>
        <time>2020-03-15T10:10:06+01:00</time>
      </trkpt>
      <trkpt lat="50.51659" lon="5.26966">
        <ele>206</ele>
        <time>2020-03-15T10:10:11+01:00</time>
      </trkpt>
      <trkpt lat="50.51651" lon="5.26971">
        <ele>207</ele>
        <time>2020-03-15T10:10:16+01:00</time>
      </trkpt>
      <trkpt lat="50.51645" lon="5.26975">
        <ele>208</ele>
        <time>2020-03-15T10:10:21+01:00</time>
      </trkpt>
      <trkpt lat="50.5164" lon="5.2698">
        <ele>208</ele>
        <time>2020-03-15T10:10:26+01:00</time>
      </trkpt>
      <trkpt lat="50.51628" lon="5.2699">
        <ele>209</ele>
        <time>2020-03-15T10:10:35+01:00</time>
      </trkpt>
      <trkpt lat="50.51556" lon="5.27036">
        <ele>214</ele>
        <time>2020-03-15T10:10:40+01:00</time>
      </trkpt>
      <trkpt lat="50.51614" lon="5.27003">
        <ele>211</ele>
        <time>2020-03-15T10:10:45+01:00</time>
      </trkpt>
      <trkpt lat="50.51606" lon="5.27008">
        <ele>211</ele>
        <time>2020-03-15T10:10:50+01:00</time>
      </trkpt>
      <trkpt lat="50.51602" lon="5.27013">
        <ele>212</ele>
        <time>2020-03-15T10:10:55+01:00</time>
      </trkpt>
      <trkpt lat="50.51592" lon="5.27022">
        <ele>213</ele>
        <time>2020-03-15T10:11:05+01:00</time>
      </trkpt>
      <trkpt lat="50.51586" lon="5.27026">
        <ele>213</ele>
        <time>2020-03-15T10:11:10+01:00</time>
      </trkpt>
      <trkpt lat="50.5158" lon="5.27035">
        <ele>214</ele>
        <time>2020-03-15T10:11:15+01:00</time>
      </trkpt>
      <trkpt lat="50.51574" lon="5.27038">
        <ele>214</ele>
        <time>2020-03-15T10:11:20+01:00</time>
      </trkpt>
      <trkpt lat="50.51561" lon="5.27046">
        <ele>215</ele>
        <time>2020-03-15T10:11:31+01:00</time>
      </trkpt>
      <trkpt lat="50.51556" lon="5.2705">
        <ele>215</ele>
        <time>2020-03-15T10:11:36+01:00</time>
      </trkpt>
      <trkpt lat="50.51548" lon="5.27053">
        <ele>215</ele>
        <time>2020-03-15T10:11:41+01:00</time>
      </trkpt>
      <trkpt lat="50.51542" lon="5.27055">
        <ele>215</ele>
        <time>2020-03-15T10:11:46+01:00</time>
      </trkpt>
      <trkpt lat="50.51534" lon="5.2706">
        <ele>215</ele>
        <time>2020-03-15T10:11:55+01:00</time>
      </trkpt>
      <trkpt lat="50.51527" lon="5.27069">
        <ele>216</ele>
        <time>2020-03-15T10:12:00+01:00</time>
      </trkpt>
      <trkpt lat="50.5152" lon="5.27078">
        <ele>216</ele>
        <time>2020-03-15T10:12:05+01:00</time>
      </trkpt>
      <trkpt lat="50.51515" lon="5.27085">
        <ele>217</ele>
        <time>2020-03-15T10:12:10+01:00</time>
      </trkpt>
      <trkpt lat="50.51508" lon="5.27097">
        <ele>217</ele>
        <time>2020-03-15T10:12:15+01:00</time>
      </trkpt>
      <trkpt lat="50.51501" lon="5.27103">
        <ele>217</ele>
        <time>2020-03-15T10:12:20+01:00</time>
      </trkpt>
      <trkpt lat="50.51493" lon="5.27109">
        <ele>218</ele>
        <time>2020-03-15T10:12:25+01:00</time>
      </trkpt>
      <trkpt lat="50.51486" lon="5.27117">
        <ele>218</ele>
        <time>2020-03-15T10:12:30+01:00</time>
      </trkpt>
      <trkpt lat="50.51482" lon="5.27124">
        <ele>218</ele>
        <time>2020-03-15T10:12:35+01:00</time>
      </trkpt>
      <trkpt lat="50.51478" lon="5.27132">
        <ele>219</ele>
        <time>2020-03-15T10:12:40+01:00</time>
      </trkpt>
      <trkpt lat="50.51473" lon="5.27145">
        <ele>219</ele>
        <time>2020-03-15T10:12:45+01:00</time>
      </trkpt>
      <trkpt lat="50.51469" lon="5.27153">
        <ele>219</ele>
        <time>2020-03-15T10:12:50+01:00</time>
      </trkpt>
      <trkpt lat="50.51457" lon="5.27168">
        <ele>220</ele>
        <time>2020-03-15T10:13:00+01:00</time>
      </trkpt>
      <trkpt lat="50.51452" lon="5.27175">
        <ele>220</ele>
        <time>2020-03-15T10:13:05+01:00</time>
      </trkpt>
      <trkpt lat="50.51445" lon="5.27188">
        <ele>221</ele>
        <time>2020-03-15T10:13:15+01:00</time>
      </trkpt>
      <trkpt lat="50.51442" lon="5.27198">
        <ele>221</ele>
        <time>2020-03-15T10:13:20+01:00</time>
      </trkpt>
      <trkpt lat="50.51439" lon="5.27209">
        <ele>221</ele>
        <time>2020-03-15T10:13:25+01:00</time>
      </trkpt>
      <trkpt lat="50.51437" lon="5.27223">
        <ele>222</ele>
        <time>2020-03-15T10:13:31+01:00</time>
      </trkpt>
      <trkpt lat="50.51431" lon="5.27237">
        <ele>222</ele>
        <time>2020-03-15T10:13:36+01:00</time>
      </trkpt>
      <trkpt lat="50.51426" lon="5.27246">
        <ele>223</ele>
        <time>2020-03-15T10:13:41+01:00</time>
      </trkpt>
      <trkpt lat="50.51419" lon="5.27253">
        <ele>223</ele>
        <time>2020-03-15T10:13:46+01:00</time>
      </trkpt>
      <trkpt lat="50.51415" lon="5.2726">
        <ele>223</ele>
        <time>2020-03-15T10:13:51+01:00</time>
      </trkpt>
      <trkpt lat="50.51408" lon="5.27265">
        <ele>223</ele>
        <time>2020-03-15T10:13:56+01:00</time>
      </trkpt>
      <trkpt lat="50.51403" lon="5.27272">
        <ele>223</ele>
        <time>2020-03-15T10:14:01+01:00</time>
      </trkpt>
      <trkpt lat="50.51397" lon="5.27278">
        <ele>223</ele>
        <time>2020-03-15T10:14:06+01:00</time>
      </trkpt>
      <trkpt lat="50.51392" lon="5.27282">
        <ele>223</ele>
        <time>2020-03-15T10:14:11+01:00</time>
      </trkpt>
      <trkpt lat="50.51384" lon="5.27287">
        <ele>223</ele>
        <time>2020-03-15T10:14:16+01:00</time>
      </trkpt>
      <trkpt lat="50.51371" lon="5.27289">
        <ele>223</ele>
        <time>2020-03-15T10:14:25+01:00</time>
      </trkpt>
      <trkpt lat="50.51362" lon="5.27292">
        <ele>223</ele>
        <time>2020-03-15T10:14:30+01:00</time>
      </trkpt>
      <trkpt lat="50.51354" lon="5.27291">
        <ele>223</ele>
        <time>2020-03-15T10:14:35+01:00</time>
      </trkpt>
      <trkpt lat="50.51347" lon="5.27294">
        <ele>223</ele>
        <time>2020-03-15T10:14:40+01:00</time>
      </trkpt>
      <trkpt lat="50.51339" lon="5.27298">
        <ele>224</ele>
        <time>2020-03-15T10:14:45+01:00</time>
      </trkpt>
      <trkpt lat="50.51334" lon="5.27303">
        <ele>224</ele>
        <time>2020-03-15T10:14:50+01:00</time>
      </trkpt>
      <trkpt lat="50.5133" lon="5.27307">
        <ele>224</ele>
        <time>2020-03-15T10:14:55+01:00</time>
      </trkpt>
      <trkpt lat="50.51322" lon="5.27311">
        <ele>224</ele>
        <time>2020-03-15T10:15:00+01:00</time>
      </trkpt>
      <trkpt lat="50.51314" lon="5.27315">
        <ele>225</ele>
        <time>2020-03-15T10:15:05+01:00</time>
      </trkpt>
      <trkpt lat="50.51308" lon="5.2732">
        <ele>225</ele>
        <time>2020-03-15T10:15:11+01:00</time>
      </trkpt>
      <trkpt lat="50.51297" lon="5.27331">
        <ele>226</ele>
        <time>2020-03-15T10:15:21+01:00</time>
      </trkpt>
      <trkpt lat="50.51284" lon="5.27341">
        <ele>227</ele>
        <time>2020-03-15T10:15:30+01:00</time>
      </trkpt>
      <trkpt lat="50.51278" lon="5.27349">
        <ele>227</ele>
        <time>2020-03-15T10:15:35+01:00</time>
      </trkpt>
      <trkpt lat="50.51272" lon="5.27355">
        <ele>228</ele>
        <time>2020-03-15T10:15:40+01:00</time>
      </trkpt>
      <trkpt lat="50.51269" lon="5.27363">
        <ele>228</ele>
        <time>2020-03-15T10:15:45+01:00</time>
      </trkpt>
      <trkpt lat="50.51263" lon="5.27374">
        <ele>229</ele>
        <time>2020-03-15T10:15:51+01:00</time>
      </trkpt>
      <trkpt lat="50.51257" lon="5.27382">
        <ele>229</ele>
        <time>2020-03-15T10:15:56+01:00</time>
      </trkpt>
      <trkpt lat="50.51253" lon="5.27388">
        <ele>229</ele>
        <time>2020-03-15T10:16:01+01:00</time>
      </trkpt>
      <trkpt lat="50.5125" lon="5.27403">
        <ele>230</ele>
        <time>2020-03-15T10:16:10+01:00</time>
      </trkpt>
      <trkpt lat="50.51244" lon="5.27413">
        <ele>230</ele>
        <time>2020-03-15T10:16:15+01:00</time>
      </trkpt>
      <trkpt lat="50.5124" lon="5.27419">
        <ele>231</ele>
        <time>2020-03-15T10:16:20+01:00</time>
      </trkpt>
      <trkpt lat="50.51233" lon="5.27429">
        <ele>231</ele>
        <time>2020-03-15T10:16:25+01:00</time>
      </trkpt>
      <trkpt lat="50.51228" lon="5.27434">
        <ele>231</ele>
        <time>2020-03-15T10:16:30+01:00</time>
      </trkpt>
      <trkpt lat="50.51223" lon="5.27438">
        <ele>231</ele>
        <time>2020-03-15T10:16:35+01:00</time>
      </trkpt>
      <trkpt lat="50.51213" lon="5.27448">
        <ele>232</ele>
        <time>2020-03-15T10:16:40+01:00</time>
      </trkpt>
      <trkpt lat="50.51194" lon="5.27459">
        <ele>233</ele>
        <time>2020-03-15T10:16:55+01:00</time>
      </trkpt>
      <trkpt lat="50.51186" lon="5.27463">
        <ele>234</ele>
        <time>2020-03-15T10:17:01+01:00</time>
      </trkpt>
      <trkpt lat="50.51177" lon="5.27466">
        <ele>234</ele>
        <time>2020-03-15T10:17:06+01:00</time>
      </trkpt>
      <trkpt lat="50.51172" lon="5.27468">
        <ele>235</ele>
        <time>2020-03-15T10:17:11+01:00</time>
      </trkpt>
      <trkpt lat="50.51166" lon="5.27475">
        <ele>235</ele>
        <time>2020-03-15T10:17:16+01:00</time>
      </trkpt>
      <trkpt lat="50.51162" lon="5.27482">
        <ele>235</ele>
        <time>2020-03-15T10:17:21+01:00</time>
      </trkpt>
      <trkpt lat="50.51155" lon="5.27489">
        <ele>235</ele>
        <time>2020-03-15T10:17:30+01:00</time>
      </trkpt>
      <trkpt lat="50.51144" lon="5.27498">
        <ele>235</ele>
        <time>2020-03-15T10:17:35+01:00</time>
      </trkpt>
      <trkpt lat="50.51139" lon="5.27503">
        <ele>235</ele>
        <time>2020-03-15T10:17:40+01:00</time>
      </trkpt>
      <trkpt lat="50.51133" lon="5.27504">
        <ele>235</ele>
        <time>2020-03-15T10:17:45+01:00</time>
      </trkpt>
      <trkpt lat="50.51124" lon="5.27505">
        <ele>235</ele>
        <time>2020-03-15T10:17:50+01:00</time>
      </trkpt>
      <trkpt lat="50.51113" lon="5.27503">
        <ele>235</ele>
        <time>2020-03-15T10:17:55+01:00</time>
      </trkpt>
      <trkpt lat="50.51106" lon="5.275">
        <ele>235</ele>
        <time>2020-03-15T10:18:00+01:00</time>
      </trkpt>
      <trkpt lat="50.51099" lon="5.27488">
        <ele>235</ele>
        <time>2020-03-15T10:18:05+01:00</time>
      </trkpt>
      <trkpt lat="50.51092" lon="5.27478">
        <ele>235</ele>
        <time>2020-03-15T10:18:10+01:00</time>
      </trkpt>
      <trkpt lat="50.51087" lon="5.27468">
        <ele>235</ele>
        <time>2020-03-15T10:18:15+01:00</time>
      </trkpt>
      <trkpt lat="50.51082" lon="5.27459">
        <ele>235</ele>
        <time>2020-03-15T10:18:20+01:00</time>
      </trkpt>
      <trkpt lat="50.51079" lon="5.27452">
        <ele>235</ele>
        <time>2020-03-15T10:18:25+01:00</time>
      </trkpt>
      <trkpt lat="50.51074" lon="5.27443">
        <ele>234</ele>
        <time>2020-03-15T10:18:31+01:00</time>
      </trkpt>
      <trkpt lat="50.51068" lon="5.27434">
        <ele>234</ele>
        <time>2020-03-15T10:18:36+01:00</time>
      </trkpt>
      <trkpt lat="50.51064" lon="5.27427">
        <ele>234</ele>
        <time>2020-03-15T10:18:41+01:00</time>
      </trkpt>
      <trkpt lat="50.51058" lon="5.27418">
        <ele>233</ele>
        <time>2020-03-15T10:18:46+01:00</time>
      </trkpt>
      <trkpt lat="50.51048" lon="5.27408">
        <ele>232</ele>
        <time>2020-03-15T10:18:55+01:00</time>
      </trkpt>
      <trkpt lat="50.51048" lon="5.27395">
        <ele>232</ele>
        <time>2020-03-15T10:19:01+01:00</time>
      </trkpt>
      <trkpt lat="50.51048" lon="5.2738">
        <ele>232</ele>
        <time>2020-03-15T10:19:06+01:00</time>
      </trkpt>
      <trkpt lat="50.5105" lon="5.27368">
        <ele>232</ele>
        <time>2020-03-15T10:19:11+01:00</time>
      </trkpt>
      <trkpt lat="50.51051" lon="5.27359">
        <ele>232</ele>
        <time>2020-03-15T10:19:16+01:00</time>
      </trkpt>
      <trkpt lat="50.51054" lon="5.27347">
        <ele>232</ele>
        <time>2020-03-15T10:19:21+01:00</time>
      </trkpt>
      <trkpt lat="50.51056" lon="5.27339">
        <ele>232</ele>
        <time>2020-03-15T10:19:26+01:00</time>
      </trkpt>
      <trkpt lat="50.51059" lon="5.27322">
        <ele>232</ele>
        <time>2020-03-15T10:19:35+01:00</time>
      </trkpt>
      <trkpt lat="50.51062" lon="5.27312">
        <ele>232</ele>
        <time>2020-03-15T10:19:40+01:00</time>
      </trkpt>
      <trkpt lat="50.51064" lon="5.27303">
        <ele>232</ele>
        <time>2020-03-15T10:19:45+01:00</time>
      </trkpt>
      <trkpt lat="50.51067" lon="5.27293">
        <ele>232</ele>
        <time>2020-03-15T10:19:50+01:00</time>
      </trkpt>
      <trkpt lat="50.5107" lon="5.27281">
        <ele>232</ele>
        <time>2020-03-15T10:19:55+01:00</time>
      </trkpt>
      <trkpt lat="50.51074" lon="5.27271">
        <ele>232</ele>
        <time>2020-03-15T10:20:00+01:00</time>
      </trkpt>
      <trkpt lat="50.51075" lon="5.27261">
        <ele>232</ele>
        <time>2020-03-15T10:20:05+01:00</time>
      </trkpt>
      <trkpt lat="50.51079" lon="5.27252">
        <ele>233</ele>
        <time>2020-03-15T10:20:10+01:00</time>
      </trkpt>
      <trkpt lat="50.51083" lon="5.27246">
        <ele>233</ele>
        <time>2020-03-15T10:20:15+01:00</time>
      </trkpt>
      <trkpt lat="50.51086" lon="5.27234">
        <ele>232</ele>
        <time>2020-03-15T10:20:20+01:00</time>
      </trkpt>
      <trkpt lat="50.5109" lon="5.27224">
        <ele>231</ele>
        <time>2020-03-15T10:20:25+01:00</time>
      </trkpt>
      <trkpt lat="50.51095" lon="5.2721">
        <ele>229</ele>
        <time>2020-03-15T10:20:31+01:00</time>
      </trkpt>
      <trkpt lat="50.51098" lon="5.27201">
        <ele>229</ele>
        <time>2020-03-15T10:20:36+01:00</time>
      </trkpt>
      <trkpt lat="50.511" lon="5.27192">
        <ele>228</ele>
        <time>2020-03-15T10:20:41+01:00</time>
      </trkpt>
      <trkpt lat="50.51104" lon="5.27183">
        <ele>228</ele>
        <time>2020-03-15T10:20:46+01:00</time>
      </trkpt>
      <trkpt lat="50.51107" lon="5.27174">
        <ele>227</ele>
        <time>2020-03-15T10:20:51+01:00</time>
      </trkpt>
      <trkpt lat="50.5111" lon="5.27165">
        <ele>227</ele>
        <time>2020-03-15T10:20:56+01:00</time>
      </trkpt>
      <trkpt lat="50.51116" lon="5.27146">
        <ele>225</ele>
        <time>2020-03-15T10:21:05+01:00</time>
      </trkpt>
      <trkpt lat="50.51121" lon="5.27136">
        <ele>225</ele>
        <time>2020-03-15T10:21:11+01:00</time>
      </trkpt>
      <trkpt lat="50.51124" lon="5.27127">
        <ele>225</ele>
        <time>2020-03-15T10:21:16+01:00</time>
      </trkpt>
      <trkpt lat="50.51128" lon="5.27117">
        <ele>224</ele>
        <time>2020-03-15T10:21:21+01:00</time>
      </trkpt>
      <trkpt lat="50.51133" lon="5.27108">
        <ele>224</ele>
        <time>2020-03-15T10:21:26+01:00</time>
      </trkpt>
      <trkpt lat="50.51141" lon="5.27092">
        <ele>223</ele>
        <time>2020-03-15T10:21:35+01:00</time>
      </trkpt>
      <trkpt lat="50.51145" lon="5.27084">
        <ele>223</ele>
        <time>2020-03-15T10:21:40+01:00</time>
      </trkpt>
      <trkpt lat="50.5115" lon="5.27075">
        <ele>223</ele>
        <time>2020-03-15T10:21:45+01:00</time>
      </trkpt>
      <trkpt lat="50.51152" lon="5.27066">
        <ele>222</ele>
        <time>2020-03-15T10:21:50+01:00</time>
      </trkpt>
      <trkpt lat="50.51156" lon="5.2705">
        <ele>222</ele>
        <time>2020-03-15T10:21:55+01:00</time>
      </trkpt>
      <trkpt lat="50.51159" lon="5.27042">
        <ele>222</ele>
        <time>2020-03-15T10:22:00+01:00</time>
      </trkpt>
      <trkpt lat="50.51166" lon="5.27029">
        <ele>221</ele>
        <time>2020-03-15T10:22:06+01:00</time>
      </trkpt>
      <trkpt lat="50.51175" lon="5.27007">
        <ele>220</ele>
        <time>2020-03-15T10:22:15+01:00</time>
      </trkpt>
      <trkpt lat="50.51178" lon="5.26999">
        <ele>219</ele>
        <time>2020-03-15T10:22:20+01:00</time>
      </trkpt>
      <trkpt lat="50.51181" lon="5.26991">
        <ele>218</ele>
        <time>2020-03-15T10:22:25+01:00</time>
      </trkpt>
      <trkpt lat="50.51185" lon="5.2698">
        <ele>217</ele>
        <time>2020-03-15T10:22:31+01:00</time>
      </trkpt>
      <trkpt lat="50.51188" lon="5.26973">
        <ele>217</ele>
        <time>2020-03-15T10:22:41+01:00</time>
      </trkpt>
      <trkpt lat="50.51196" lon="5.26937">
        <ele>214</ele>
        <time>2020-03-15T10:22:55+01:00</time>
      </trkpt>
      <trkpt lat="50.51201" lon="5.26928">
        <ele>213</ele>
        <time>2020-03-15T10:23:00+01:00</time>
      </trkpt>
      <trkpt lat="50.51202" lon="5.2692">
        <ele>213</ele>
        <time>2020-03-15T10:23:05+01:00</time>
      </trkpt>
      <trkpt lat="50.51204" lon="5.26911">
        <ele>212</ele>
        <time>2020-03-15T10:23:11+01:00</time>
      </trkpt>
      <trkpt lat="50.51206" lon="5.269">
        <ele>211</ele>
        <time>2020-03-15T10:23:16+01:00</time>
      </trkpt>
      <trkpt lat="50.51209" lon="5.26892">
        <ele>210</ele>
        <time>2020-03-15T10:23:21+01:00</time>
      </trkpt>
      <trkpt lat="50.51211" lon="5.26886">
        <ele>209</ele>
        <time>2020-03-15T10:23:26+01:00</time>
      </trkpt>
      <trkpt lat="50.51214" lon="5.26879">
        <ele>208</ele>
        <time>2020-03-15T10:23:36+01:00</time>
      </trkpt>
      <trkpt lat="50.51217" lon="5.2686">
        <ele>206</ele>
        <time>2020-03-15T10:23:45+01:00</time>
      </trkpt>
      <trkpt lat="50.51218" lon="5.26853">
        <ele>206</ele>
        <time>2020-03-15T10:23:50+01:00</time>
      </trkpt>
      <trkpt lat="50.5122" lon="5.26846">
        <ele>205</ele>
        <time>2020-03-15T10:23:55+01:00</time>
      </trkpt>
      <trkpt lat="50.51222" lon="5.26839">
        <ele>204</ele>
        <time>2020-03-15T10:24:00+01:00</time>
      </trkpt>
      <trkpt lat="50.51224" lon="5.26831">
        <ele>203</ele>
        <time>2020-03-15T10:24:05+01:00</time>
      </trkpt>
      <trkpt lat="50.51228" lon="5.26826">
        <ele>203</ele>
        <time>2020-03-15T10:24:10+01:00</time>
      </trkpt>
      <trkpt lat="50.51231" lon="5.26814">
        <ele>202</ele>
        <time>2020-03-15T10:24:15+01:00</time>
      </trkpt>
      <trkpt lat="50.51234" lon="5.26805">
        <ele>201</ele>
        <time>2020-03-15T10:24:20+01:00</time>
      </trkpt>
      <trkpt lat="50.51241" lon="5.26804">
        <ele>201</ele>
        <time>2020-03-15T10:24:25+01:00</time>
      </trkpt>
      <trkpt lat="50.51249" lon="5.26807">
        <ele>201</ele>
        <time>2020-03-15T10:24:30+01:00</time>
      </trkpt>
      <trkpt lat="50.51267" lon="5.26819">
        <ele>200</ele>
        <time>2020-03-15T10:24:40+01:00</time>
      </trkpt>
      <trkpt lat="50.51272" lon="5.26821">
        <ele>200</ele>
        <time>2020-03-15T10:24:45+01:00</time>
      </trkpt>
      <trkpt lat="50.51279" lon="5.26825">
        <ele>199</ele>
        <time>2020-03-15T10:24:50+01:00</time>
      </trkpt>
      <trkpt lat="50.51288" lon="5.26826">
        <ele>199</ele>
        <time>2020-03-15T10:24:55+01:00</time>
      </trkpt>
      <trkpt lat="50.51294" lon="5.26828">
        <ele>199</ele>
        <time>2020-03-15T10:25:00+01:00</time>
      </trkpt>
      <trkpt lat="50.51302" lon="5.26826">
        <ele>198</ele>
        <time>2020-03-15T10:25:05+01:00</time>
      </trkpt>
      <trkpt lat="50.51309" lon="5.26827">
        <ele>197</ele>
        <time>2020-03-15T10:25:11+01:00</time>
      </trkpt>
      <trkpt lat="50.51314" lon="5.26826">
        <ele>197</ele>
        <time>2020-03-15T10:25:16+01:00</time>
      </trkpt>
      <trkpt lat="50.5132" lon="5.26825">
        <ele>196</ele>
        <time>2020-03-15T10:25:21+01:00</time>
      </trkpt>
      <trkpt lat="50.51327" lon="5.26822">
        <ele>196</ele>
        <time>2020-03-15T10:25:26+01:00</time>
      </trkpt>
      <trkpt lat="50.51334" lon="5.26818">
        <ele>195</ele>
        <time>2020-03-15T10:25:31+01:00</time>
      </trkpt>
      <trkpt lat="50.51339" lon="5.26804">
        <ele>194</ele>
        <time>2020-03-15T10:25:40+01:00</time>
      </trkpt>
      <trkpt lat="50.51345" lon="5.268">
        <ele>194</ele>
        <time>2020-03-15T10:25:45+01:00</time>
      </trkpt>
      <trkpt lat="50.51352" lon="5.26798">
        <ele>193</ele>
        <time>2020-03-15T10:25:50+01:00</time>
      </trkpt>
      <trkpt lat="50.51355" lon="5.26794">
        <ele>193</ele>
        <time>2020-03-15T10:25:55+01:00</time>
      </trkpt>
      <trkpt lat="50.5136" lon="5.26791">
        <ele>193</ele>
        <time>2020-03-15T10:26:00+01:00</time>
      </trkpt>
      <trkpt lat="50.51368" lon="5.26784">
        <ele>192</ele>
        <time>2020-03-15T10:26:05+01:00</time>
      </trkpt>
      <trkpt lat="50.51376" lon="5.2678">
        <ele>191</ele>
        <time>2020-03-15T10:26:10+01:00</time>
      </trkpt>
      <trkpt lat="50.51381" lon="5.26777">
        <ele>190</ele>
        <time>2020-03-15T10:26:15+01:00</time>
      </trkpt>
      <trkpt lat="50.51388" lon="5.26775">
        <ele>190</ele>
        <time>2020-03-15T10:26:20+01:00</time>
      </trkpt>
      <trkpt lat="50.51396" lon="5.26771">
        <ele>189</ele>
        <time>2020-03-15T10:26:25+01:00</time>
      </trkpt>
      <trkpt lat="50.51405" lon="5.26767">
        <ele>188</ele>
        <time>2020-03-15T10:26:30+01:00</time>
      </trkpt>
      <trkpt lat="50.51411" lon="5.26762">
        <ele>186</ele>
        <time>2020-03-15T10:26:35+01:00</time>
      </trkpt>
      <trkpt lat="50.51419" lon="5.26763">
        <ele>186</ele>
        <time>2020-03-15T10:26:41+01:00</time>
      </trkpt>
      <trkpt lat="50.51429" lon="5.26756">
        <ele>185</ele>
        <time>2020-03-15T10:26:50+01:00</time>
      </trkpt>
      <trkpt lat="50.51434" lon="5.26751">
        <ele>185</ele>
        <time>2020-03-15T10:26:55+01:00</time>
      </trkpt>
      <trkpt lat="50.5144" lon="5.26751">
        <ele>185</ele>
        <time>2020-03-15T10:27:00+01:00</time>
      </trkpt>
      <trkpt lat="50.51448" lon="5.26748">
        <ele>185</ele>
        <time>2020-03-15T10:27:05+01:00</time>
      </trkpt>
      <trkpt lat="50.51455" lon="5.26747">
        <ele>185</ele>
        <time>2020-03-15T10:27:10+01:00</time>
      </trkpt>
      <trkpt lat="50.51463" lon="5.26741">
        <ele>185</ele>
        <time>2020-03-15T10:27:15+01:00</time>
      </trkpt>
      <trkpt lat="50.5147" lon="5.26737">
        <ele>185</ele>
        <time>2020-03-15T10:27:20+01:00</time>
      </trkpt>
      <trkpt lat="50.51478" lon="5.26736">
        <ele>185</ele>
        <time>2020-03-15T10:27:26+01:00</time>
      </trkpt>
      <trkpt lat="50.51487" lon="5.26732">
        <ele>185</ele>
        <time>2020-03-15T10:27:31+01:00</time>
      </trkpt>
      <trkpt lat="50.51495" lon="5.2673">
        <ele>185</ele>
        <time>2020-03-15T10:27:36+01:00</time>
      </trkpt>
      <trkpt lat="50.51501" lon="5.26724">
        <ele>184</ele>
        <time>2020-03-15T10:27:41+01:00</time>
      </trkpt>
      <trkpt lat="50.51505" lon="5.2672">
        <ele>183</ele>
        <time>2020-03-15T10:27:46+01:00</time>
      </trkpt>
      <trkpt lat="50.51512" lon="5.26713">
        <ele>182</ele>
        <time>2020-03-15T10:27:51+01:00</time>
      </trkpt>
      <trkpt lat="50.51519" lon="5.26701">
        <ele>180</ele>
        <time>2020-03-15T10:28:00+01:00</time>
      </trkpt>
      <trkpt lat="50.51526" lon="5.267">
        <ele>180</ele>
        <time>2020-03-15T10:28:05+01:00</time>
      </trkpt>
      <trkpt lat="50.51531" lon="5.26698">
        <ele>180</ele>
        <time>2020-03-15T10:28:10+01:00</time>
      </trkpt>
      <trkpt lat="50.51539" lon="5.26694">
        <ele>179</ele>
        <time>2020-03-15T10:28:16+01:00</time>
      </trkpt>
      <trkpt lat="50.51545" lon="5.2669">
        <ele>178</ele>
        <time>2020-03-15T10:28:21+01:00</time>
      </trkpt>
      <trkpt lat="50.51549" lon="5.26686">
        <ele>177</ele>
        <time>2020-03-15T10:28:26+01:00</time>
      </trkpt>
      <trkpt lat="50.51563" lon="5.26679">
        <ele>175</ele>
        <time>2020-03-15T10:28:41+01:00</time>
      </trkpt>
      <trkpt lat="50.51573" lon="5.26682">
        <ele>175</ele>
        <time>2020-03-15T10:28:50+01:00</time>
      </trkpt>
      <trkpt lat="50.51573" lon="5.26688">
        <ele>176</ele>
        <time>2020-03-15T10:29:10+01:00</time>
      </trkpt>
      <trkpt lat="50.5158" lon="5.26686">
        <ele>176</ele>
        <time>2020-03-15T10:29:15+01:00</time>
      </trkpt>
      <trkpt lat="50.5159" lon="5.26683">
        <ele>175</ele>
        <time>2020-03-15T10:29:25+01:00</time>
      </trkpt>
      <trkpt lat="50.51597" lon="5.26679">
        <ele>174</ele>
        <time>2020-03-15T10:29:30+01:00</time>
      </trkpt>
      <trkpt lat="50.51606" lon="5.26677">
        <ele>174</ele>
        <time>2020-03-15T10:29:35+01:00</time>
      </trkpt>
      <trkpt lat="50.51614" lon="5.26675">
        <ele>173</ele>
        <time>2020-03-15T10:29:40+01:00</time>
      </trkpt>
      <trkpt lat="50.51625" lon="5.26676">
        <ele>173</ele>
        <time>2020-03-15T10:29:46+01:00</time>
      </trkpt>
      <trkpt lat="50.51632" lon="5.26678">
        <ele>173</ele>
        <time>2020-03-15T10:29:51+01:00</time>
      </trkpt>
      <trkpt lat="50.51635" lon="5.26685">
        <ele>174</ele>
        <time>2020-03-15T10:30:01+01:00</time>
      </trkpt>
      <trkpt lat="50.5164" lon="5.26688">
        <ele>175</ele>
        <time>2020-03-15T10:30:06+01:00</time>
      </trkpt>
      <trkpt lat="50.51646" lon="5.26687">
        <ele>175</ele>
        <time>2020-03-15T10:30:11+01:00</time>
      </trkpt>
      <trkpt lat="50.51657" lon="5.26685">
        <ele>174</ele>
        <time>2020-03-15T10:30:20+01:00</time>
      </trkpt>
      <trkpt lat="50.51664" lon="5.26688">
        <ele>174</ele>
        <time>2020-03-15T10:30:26+01:00</time>
      </trkpt>
      <trkpt lat="50.51671" lon="5.26687">
        <ele>174</ele>
        <time>2020-03-15T10:30:31+01:00</time>
      </trkpt>
      <trkpt lat="50.51677" lon="5.26685">
        <ele>173</ele>
        <time>2020-03-15T10:30:36+01:00</time>
      </trkpt>
      <trkpt lat="50.51683" lon="5.26681">
        <ele>173</ele>
        <time>2020-03-15T10:30:41+01:00</time>
      </trkpt>
      <trkpt lat="50.51693" lon="5.26674">
        <ele>171</ele>
        <time>2020-03-15T10:30:50+01:00</time>
      </trkpt>
      <trkpt lat="50.51699" lon="5.2667">
        <ele>170</ele>
        <time>2020-03-15T10:30:55+01:00</time>
      </trkpt>
      <trkpt lat="50.51707" lon="5.26667">
        <ele>170</ele>
        <time>2020-03-15T10:31:00+01:00</time>
      </trkpt>
      <trkpt lat="50.51714" lon="5.26666">
        <ele>169</ele>
        <time>2020-03-15T10:31:05+01:00</time>
      </trkpt>
      <trkpt lat="50.5172" lon="5.26663">
        <ele>169</ele>
        <time>2020-03-15T10:31:10+01:00</time>
      </trkpt>
      <trkpt lat="50.51728" lon="5.26661">
        <ele>169</ele>
        <time>2020-03-15T10:31:16+01:00</time>
      </trkpt>
      <trkpt lat="50.51741" lon="5.26662">
        <ele>168</ele>
        <time>2020-03-15T10:31:25+01:00</time>
      </trkpt>
      <trkpt lat="50.51749" lon="5.26663">
        <ele>168</ele>
        <time>2020-03-15T10:31:30+01:00</time>
      </trkpt>
      <trkpt lat="50.51756" lon="5.26657">
        <ele>168</ele>
        <time>2020-03-15T10:31:35+01:00</time>
      </trkpt>
      <trkpt lat="50.51764" lon="5.26653">
        <ele>167</ele>
        <time>2020-03-15T10:31:40+01:00</time>
      </trkpt>
      <trkpt lat="50.51769" lon="5.26649">
        <ele>167</ele>
        <time>2020-03-15T10:31:45+01:00</time>
      </trkpt>
      <trkpt lat="50.51776" lon="5.26646">
        <ele>167</ele>
        <time>2020-03-15T10:31:51+01:00</time>
      </trkpt>
      <trkpt lat="50.51783" lon="5.26642">
        <ele>166</ele>
        <time>2020-03-15T10:31:56+01:00</time>
      </trkpt>
      <trkpt lat="50.5179" lon="5.2664">
        <ele>166</ele>
        <time>2020-03-15T10:32:01+01:00</time>
      </trkpt>
      <trkpt lat="50.51796" lon="5.26635">
        <ele>165</ele>
        <time>2020-03-15T10:32:06+01:00</time>
      </trkpt>
      <trkpt lat="50.51805" lon="5.26633">
        <ele>165</ele>
        <time>2020-03-15T10:32:11+01:00</time>
      </trkpt>
      <trkpt lat="50.51819" lon="5.26638">
        <ele>164</ele>
        <time>2020-03-15T10:32:20+01:00</time>
      </trkpt>
      <trkpt lat="50.51825" lon="5.26645">
        <ele>164</ele>
        <time>2020-03-15T10:32:25+01:00</time>
      </trkpt>
      <trkpt lat="50.51833" lon="5.26656">
        <ele>164</ele>
        <time>2020-03-15T10:32:30+01:00</time>
      </trkpt>
      <trkpt lat="50.51839" lon="5.26656">
        <ele>163</ele>
        <time>2020-03-15T10:32:35+01:00</time>
      </trkpt>
      <trkpt lat="50.51846" lon="5.26659">
        <ele>161</ele>
        <time>2020-03-15T10:32:40+01:00</time>
      </trkpt>
      <trkpt lat="50.51854" lon="5.26661">
        <ele>160</ele>
        <time>2020-03-15T10:32:45+01:00</time>
      </trkpt>
      <trkpt lat="50.51858" lon="5.26662">
        <ele>159</ele>
        <time>2020-03-15T10:32:50+01:00</time>
      </trkpt>
      <trkpt lat="50.51864" lon="5.2667">
        <ele>158</ele>
        <time>2020-03-15T10:32:55+01:00</time>
      </trkpt>
      <trkpt lat="50.5187" lon="5.26681">
        <ele>158</ele>
        <time>2020-03-15T10:33:00+01:00</time>
      </trkpt>
      <trkpt lat="50.51874" lon="5.26689">
        <ele>157</ele>
        <time>2020-03-15T10:33:05+01:00</time>
      </trkpt>
      <trkpt lat="50.51877" lon="5.26702">
        <ele>157</ele>
        <time>2020-03-15T10:33:15+01:00</time>
      </trkpt>
      <trkpt lat="50.5188" lon="5.26715">
        <ele>157</ele>
        <time>2020-03-15T10:33:21+01:00</time>
      </trkpt>
      <trkpt lat="50.51881" lon="5.26725">
        <ele>157</ele>
        <time>2020-03-15T10:33:26+01:00</time>
      </trkpt>
      <trkpt lat="50.51885" lon="5.26734">
        <ele>157</ele>
        <time>2020-03-15T10:33:31+01:00</time>
      </trkpt>
      <trkpt lat="50.51889" lon="5.26744">
        <ele>157</ele>
        <time>2020-03-15T10:33:36+01:00</time>
      </trkpt>
      <trkpt lat="50.51892" lon="5.26755">
        <ele>157</ele>
        <time>2020-03-15T10:33:41+01:00</time>
      </trkpt>
      <trkpt lat="50.51894" lon="5.26764">
        <ele>158</ele>
        <time>2020-03-15T10:33:46+01:00</time>
      </trkpt>
      <trkpt lat="50.51898" lon="5.26781">
        <ele>159</ele>
        <time>2020-03-15T10:33:55+01:00</time>
      </trkpt>
      <trkpt lat="50.51902" lon="5.26792">
        <ele>159</ele>
        <time>2020-03-15T10:34:00+01:00</time>
      </trkpt>
      <trkpt lat="50.51905" lon="5.26799">
        <ele>160</ele>
        <time>2020-03-15T10:34:06+01:00</time>
      </trkpt>
      <trkpt lat="50.51907" lon="5.26813">
        <ele>161</ele>
        <time>2020-03-15T10:34:16+01:00</time>
      </trkpt>
      <trkpt lat="50.51907" lon="5.26823">
        <ele>162</ele>
        <time>2020-03-15T10:34:21+01:00</time>
      </trkpt>
      <trkpt lat="50.51906" lon="5.26839">
        <ele>164</ele>
        <time>2020-03-15T10:34:26+01:00</time>
      </trkpt>
      <trkpt lat="50.51905" lon="5.26859">
        <ele>165</ele>
        <time>2020-03-15T10:34:36+01:00</time>
      </trkpt>
      <trkpt lat="50.51907" lon="5.26869">
        <ele>165</ele>
        <time>2020-03-15T10:34:41+01:00</time>
      </trkpt>
      <trkpt lat="50.51905" lon="5.26881">
        <ele>166</ele>
        <time>2020-03-15T10:34:46+01:00</time>
      </trkpt>
      <trkpt lat="50.51907" lon="5.26891">
        <ele>166</ele>
        <time>2020-03-15T10:34:51+01:00</time>
      </trkpt>
      <trkpt lat="50.51907" lon="5.26897">
        <ele>166</ele>
        <time>2020-03-15T10:34:56+01:00</time>
      </trkpt>
      <trkpt lat="50.51909" lon="5.26906">
        <ele>166</ele>
        <time>2020-03-15T10:35:05+01:00</time>
      </trkpt>
      <trkpt lat="50.51913" lon="5.2692">
        <ele>166</ele>
        <time>2020-03-15T10:35:15+01:00</time>
      </trkpt>
      <trkpt lat="50.51915" lon="5.26928">
        <ele>165</ele>
        <time>2020-03-15T10:35:20+01:00</time>
      </trkpt>
      <trkpt lat="50.51917" lon="5.26938">
        <ele>165</ele>
        <time>2020-03-15T10:35:25+01:00</time>
      </trkpt>
      <trkpt lat="50.51921" lon="5.2695">
        <ele>164</ele>
        <time>2020-03-15T10:35:31+01:00</time>
      </trkpt>
      <trkpt lat="50.51921" lon="5.26952">
        <ele>164</ele>
        <time>2020-10-30T21:46:24+01:00</time>
      </trkpt>
      <trkpt lat="50.51924" lon="5.26958">
        <ele>164</ele>
        <time>2020-03-15T10:35:41+01:00</time>
      </trkpt>
      <trkpt lat="50.51926" lon="5.2699">
        <ele>163</ele>
        <time>2020-03-15T10:35:50+01:00</time>
      </trkpt>
      <trkpt lat="50.51927" lon="5.27002">
        <ele>163</ele>
        <time>2020-03-15T10:36:05+01:00</time>
      </trkpt>
      <trkpt lat="50.51928" lon="5.27018">
        <ele>162</ele>
        <time>2020-03-15T10:36:11+01:00</time>
      </trkpt>
      <trkpt lat="50.51928" lon="5.27032">
        <ele>161</ele>
        <time>2020-03-15T10:36:16+01:00</time>
      </trkpt>
      <trkpt lat="50.51926" lon="5.27042">
        <ele>161</ele>
        <time>2020-03-15T10:36:21+01:00</time>
      </trkpt>
      <trkpt lat="50.51925" lon="5.27052">
        <ele>161</ele>
        <time>2020-03-15T10:36:26+01:00</time>
      </trkpt>
      <trkpt lat="50.51925" lon="5.27073">
        <ele>160</ele>
        <time>2020-03-15T10:36:36+01:00</time>
      </trkpt>
      <trkpt lat="50.51925" lon="5.27084">
        <ele>159</ele>
        <time>2020-03-15T10:36:41+01:00</time>
      </trkpt>
      <trkpt lat="50.51921" lon="5.27105">
        <ele>158</ele>
        <time>2020-03-15T10:36:50+01:00</time>
      </trkpt>
      <trkpt lat="50.5192" lon="5.27115">
        <ele>157</ele>
        <time>2020-03-15T10:36:55+01:00</time>
      </trkpt>
      <trkpt lat="50.5192" lon="5.27122">
        <ele>157</ele>
        <time>2020-03-15T10:37:05+01:00</time>
      </trkpt>
      <trkpt lat="50.51917" lon="5.27135">
        <ele>156</ele>
        <time>2020-03-15T10:37:10+01:00</time>
      </trkpt>
      <trkpt lat="50.51917" lon="5.27147">
        <ele>155</ele>
        <time>2020-03-15T10:37:15+01:00</time>
      </trkpt>
      <trkpt lat="50.51915" lon="5.27159">
        <ele>154</ele>
        <time>2020-03-15T10:37:21+01:00</time>
      </trkpt>
      <trkpt lat="50.51914" lon="5.27167">
        <ele>153</ele>
        <time>2020-03-15T10:37:26+01:00</time>
      </trkpt>
      <trkpt lat="50.51912" lon="5.27175">
        <ele>154</ele>
        <time>2020-03-15T10:37:31+01:00</time>
      </trkpt>
      <trkpt lat="50.51909" lon="5.27183">
        <ele>154</ele>
        <time>2020-03-15T10:37:36+01:00</time>
      </trkpt>
      <trkpt lat="50.51909" lon="5.27191">
        <ele>154</ele>
        <time>2020-03-15T10:37:41+01:00</time>
      </trkpt>
      <trkpt lat="50.5191" lon="5.27199">
        <ele>154</ele>
        <time>2020-03-15T10:37:46+01:00</time>
      </trkpt>
      <trkpt lat="50.51913" lon="5.27206">
        <ele>153</ele>
        <time>2020-03-15T10:38:00+01:00</time>
      </trkpt>
      <trkpt lat="50.5192" lon="5.2721">
        <ele>152</ele>
        <time>2020-03-15T10:38:06+01:00</time>
      </trkpt>
      <trkpt lat="50.51926" lon="5.27217">
        <ele>151</ele>
        <time>2020-03-15T10:38:15+01:00</time>
      </trkpt>
      <trkpt lat="50.51934" lon="5.27225">
        <ele>150</ele>
        <time>2020-03-15T10:38:36+01:00</time>
      </trkpt>
      <trkpt lat="50.51942" lon="5.27226">
        <ele>148</ele>
        <time>2020-03-15T10:38:46+01:00</time>
      </trkpt>
      <trkpt lat="50.51957" lon="5.27231">
        <ele>146</ele>
        <time>2020-03-15T10:38:55+01:00</time>
      </trkpt>
      <trkpt lat="50.51963" lon="5.27234">
        <ele>145</ele>
        <time>2020-03-15T10:39:00+01:00</time>
      </trkpt>
      <trkpt lat="50.51972" lon="5.27233">
        <ele>144</ele>
        <time>2020-03-15T10:39:05+01:00</time>
      </trkpt>
      <trkpt lat="50.51978" lon="5.27241">
        <ele>143</ele>
        <time>2020-03-15T10:39:15+01:00</time>
      </trkpt>
      <trkpt lat="50.51984" lon="5.2725">
        <ele>142</ele>
        <time>2020-03-15T10:39:21+01:00</time>
      </trkpt>
    </trkseg>
  </trk>
</gpx>